<?xml version="1.0" encoding="UTF-8" standalone="no" ?>
<gpx xmlns="http://www.topografix.com/GPX/1/1" xmlns:xsi="http://www.w3.org/2001/XMLSchema-instance" xsi:schemaLocation="http://www.topografix.com/GPX/1/1 http://www.topografix.com/GPX/1/1/gpx.xsd" version="1.1" creator="VisuGPX - https://www.visugpx.com">
  <metadata>
    <name>Semi Moneteau 2025</name>
    <desc><![CDATA[Semi Monéteau 2025 officiel]]></desc>
  </metadata>
  <wpt lat="47.84873" lon="3.57876">
    <ele>93.3</ele>
    <name><![CDATA[semi 2025 officiel]]></name>
    <type><![CDATA[Generic]]></type>
  </wpt>
  <trk>
    <name><![CDATA[semi 2025 officiel]]></name>
    <trkseg>
      <trkpt lat="47.84873" lon="3.57876">
        <ele>93.3</ele>
        <time>2025-03-07T19:01:08Z</time>
      </trkpt>
      <trkpt lat="47.84879" lon="3.57874">
        <ele>93.3</ele>
        <time>2025-03-07T19:01:15Z</time>
      </trkpt>
      <trkpt lat="47.84892" lon="3.5787">
        <ele>93.4</ele>
        <time>2025-03-07T19:01:35Z</time>
      </trkpt>
      <trkpt lat="47.84909" lon="3.57866">
        <ele>93.9</ele>
        <time>2025-03-07T19:01:52Z</time>
      </trkpt>
      <trkpt lat="47.84922" lon="3.57865">
        <ele>94.1</ele>
        <time>2025-03-07T19:02:01Z</time>
      </trkpt>
      <trkpt lat="47.84935" lon="3.57863">
        <ele>94.1</ele>
        <time>2025-03-07T19:02:20Z</time>
      </trkpt>
      <trkpt lat="47.84948" lon="3.57861">
        <ele>94.1</ele>
        <time>2025-03-07T19:02:33Z</time>
      </trkpt>
      <trkpt lat="47.84952" lon="3.57861">
        <ele>94.3</ele>
        <time>2025-03-07T19:02:35Z</time>
      </trkpt>
      <trkpt lat="47.8497" lon="3.57859">
        <ele>94.9</ele>
        <time>2025-03-07T19:02:40Z</time>
      </trkpt>
      <trkpt lat="47.84981" lon="3.57857">
        <ele>95</ele>
        <time>2025-03-07T19:02:49Z</time>
      </trkpt>
      <trkpt lat="47.8498" lon="3.57835">
        <ele>95</ele>
        <time>2025-03-07T19:03:07Z</time>
      </trkpt>
      <trkpt lat="47.84978" lon="3.57815">
        <ele>94.9</ele>
        <time>2025-03-07T19:03:19Z</time>
      </trkpt>
      <trkpt lat="47.84977" lon="3.57802">
        <ele>94.4</ele>
        <time>2025-03-07T19:03:38Z</time>
      </trkpt>
      <trkpt lat="47.84975" lon="3.57789">
        <ele>92.7</ele>
        <time>2025-03-07T19:03:55Z</time>
      </trkpt>
      <trkpt lat="47.8497" lon="3.57775">
        <ele>90.9</ele>
        <time>2025-03-07T19:04:03Z</time>
      </trkpt>
      <trkpt lat="47.8495" lon="3.57711">
        <ele>90.7</ele>
        <time>2025-03-07T19:04:19Z</time>
      </trkpt>
      <trkpt lat="47.84942" lon="3.57687">
        <ele>92.7</ele>
        <time>2025-03-07T19:04:35Z</time>
      </trkpt>
      <trkpt lat="47.84939" lon="3.57675">
        <ele>93.6</ele>
        <time>2025-03-07T19:04:50Z</time>
      </trkpt>
      <trkpt lat="47.84927" lon="3.57648">
        <ele>94.2</ele>
        <time>2025-03-07T19:04:52Z</time>
      </trkpt>
      <trkpt lat="47.84913" lon="3.57622">
        <ele>94.3</ele>
        <time>2025-03-07T19:05:09Z</time>
      </trkpt>
      <trkpt lat="47.84905" lon="3.57606">
        <ele>93.9</ele>
        <time>2025-03-07T19:05:12Z</time>
      </trkpt>
      <trkpt lat="47.84896" lon="3.57591">
        <ele>93.8</ele>
        <time>2025-03-07T19:05:31Z</time>
      </trkpt>
      <trkpt lat="47.84889" lon="3.57584">
        <ele>94</ele>
        <time>2025-03-07T19:05:33Z</time>
      </trkpt>
      <trkpt lat="47.84893" lon="3.57576">
        <ele>93.9</ele>
        <time>2025-03-07T19:05:48Z</time>
      </trkpt>
      <trkpt lat="47.849" lon="3.57569">
        <ele>93.8</ele>
        <time>2025-03-07T19:05:53Z</time>
      </trkpt>
      <trkpt lat="47.84902" lon="3.57565">
        <ele>93.8</ele>
        <time>2025-03-07T19:05:57Z</time>
      </trkpt>
      <trkpt lat="47.84913" lon="3.57539">
        <ele>94</ele>
        <time>2025-03-07T19:06:17Z</time>
      </trkpt>
      <trkpt lat="47.84916" lon="3.57536">
        <ele>94</ele>
        <time>2025-03-07T19:06:23Z</time>
      </trkpt>
      <trkpt lat="47.84927" lon="3.57527">
        <ele>93.6</ele>
        <time>2025-03-07T19:06:27Z</time>
      </trkpt>
      <trkpt lat="47.84946" lon="3.57516">
        <ele>93</ele>
        <time>2025-03-07T19:06:38Z</time>
      </trkpt>
      <trkpt lat="47.84969" lon="3.57503">
        <ele>93</ele>
        <time>2025-03-07T19:06:58Z</time>
      </trkpt>
      <trkpt lat="47.84984" lon="3.57494">
        <ele>93</ele>
        <time>2025-03-07T19:07:00Z</time>
      </trkpt>
      <trkpt lat="47.8499" lon="3.57491">
        <ele>93</ele>
        <time>2025-03-07T19:07:15Z</time>
      </trkpt>
      <trkpt lat="47.85008" lon="3.57481">
        <ele>93</ele>
        <time>2025-03-07T19:07:28Z</time>
      </trkpt>
      <trkpt lat="47.85026" lon="3.57472">
        <ele>93</ele>
        <time>2025-03-07T19:07:38Z</time>
      </trkpt>
      <trkpt lat="47.85028" lon="3.57471">
        <ele>93</ele>
        <time>2025-03-07T19:07:51Z</time>
      </trkpt>
      <trkpt lat="47.85031" lon="3.57467">
        <ele>93</ele>
        <time>2025-03-07T19:08:09Z</time>
      </trkpt>
      <trkpt lat="47.85032" lon="3.57462">
        <ele>93</ele>
        <time>2025-03-07T19:08:28Z</time>
      </trkpt>
      <trkpt lat="47.85029" lon="3.57444">
        <ele>93</ele>
        <time>2025-03-07T19:08:47Z</time>
      </trkpt>
      <trkpt lat="47.8502" lon="3.57414">
        <ele>93</ele>
        <time>2025-03-07T19:09:03Z</time>
      </trkpt>
      <trkpt lat="47.85014" lon="3.57393">
        <ele>93</ele>
        <time>2025-03-07T19:09:11Z</time>
      </trkpt>
      <trkpt lat="47.85006" lon="3.57368">
        <ele>93</ele>
        <time>2025-03-07T19:09:21Z</time>
      </trkpt>
      <trkpt lat="47.85" lon="3.57349">
        <ele>93</ele>
        <time>2025-03-07T19:09:28Z</time>
      </trkpt>
      <trkpt lat="47.84994" lon="3.57325">
        <ele>93</ele>
        <time>2025-03-07T19:09:32Z</time>
      </trkpt>
      <trkpt lat="47.84987" lon="3.57306">
        <ele>93</ele>
        <time>2025-03-07T19:09:44Z</time>
      </trkpt>
      <trkpt lat="47.84985" lon="3.57299">
        <ele>93</ele>
        <time>2025-03-07T19:09:47Z</time>
      </trkpt>
      <trkpt lat="47.84982" lon="3.57287">
        <ele>93</ele>
        <time>2025-03-07T19:09:53Z</time>
      </trkpt>
      <trkpt lat="47.84976" lon="3.57258">
        <ele>93</ele>
        <time>2025-03-07T19:10:01Z</time>
      </trkpt>
      <trkpt lat="47.84974" lon="3.57253">
        <ele>93</ele>
        <time>2025-03-07T19:10:08Z</time>
      </trkpt>
      <trkpt lat="47.84975" lon="3.57246">
        <ele>93</ele>
        <time>2025-03-07T19:10:22Z</time>
      </trkpt>
      <trkpt lat="47.84975" lon="3.57228">
        <ele>92.9</ele>
        <time>2025-03-07T19:10:37Z</time>
      </trkpt>
      <trkpt lat="47.84972" lon="3.57226">
        <ele>93</ele>
        <time>2025-03-07T19:10:39Z</time>
      </trkpt>
      <trkpt lat="47.84965" lon="3.57215">
        <ele>93</ele>
        <time>2025-03-07T19:10:46Z</time>
      </trkpt>
      <trkpt lat="47.84958" lon="3.57209">
        <ele>93</ele>
        <time>2025-03-07T19:11:04Z</time>
      </trkpt>
      <trkpt lat="47.84946" lon="3.57207">
        <ele>93</ele>
        <time>2025-03-07T19:11:11Z</time>
      </trkpt>
      <trkpt lat="47.84926" lon="3.57205">
        <ele>93</ele>
        <time>2025-03-07T19:11:19Z</time>
      </trkpt>
      <trkpt lat="47.84907" lon="3.57204">
        <ele>93</ele>
        <time>2025-03-07T19:11:23Z</time>
      </trkpt>
      <trkpt lat="47.84902" lon="3.57201">
        <ele>93</ele>
        <time>2025-03-07T19:11:38Z</time>
      </trkpt>
      <trkpt lat="47.84897" lon="3.57198">
        <ele>93</ele>
        <time>2025-03-07T19:11:50Z</time>
      </trkpt>
      <trkpt lat="47.84882" lon="3.57199">
        <ele>93</ele>
        <time>2025-03-07T19:11:52Z</time>
      </trkpt>
      <trkpt lat="47.84861" lon="3.57201">
        <ele>93</ele>
        <time>2025-03-07T19:11:57Z</time>
      </trkpt>
      <trkpt lat="47.84856" lon="3.57203">
        <ele>93</ele>
        <time>2025-03-07T19:12:07Z</time>
      </trkpt>
      <trkpt lat="47.84851" lon="3.57206">
        <ele>93</ele>
        <time>2025-03-07T19:12:15Z</time>
      </trkpt>
      <trkpt lat="47.84831" lon="3.57212">
        <ele>93.1</ele>
        <time>2025-03-07T19:12:17Z</time>
      </trkpt>
      <trkpt lat="47.84806" lon="3.57219">
        <ele>93.9</ele>
        <time>2025-03-07T19:12:35Z</time>
      </trkpt>
      <trkpt lat="47.84795" lon="3.57222">
        <ele>93.6</ele>
        <time>2025-03-07T19:12:49Z</time>
      </trkpt>
      <trkpt lat="47.84788" lon="3.57185">
        <ele>93</ele>
        <time>2025-03-07T19:13:06Z</time>
      </trkpt>
      <trkpt lat="47.84782" lon="3.57162">
        <ele>93</ele>
        <time>2025-03-07T19:13:15Z</time>
      </trkpt>
      <trkpt lat="47.84776" lon="3.5713">
        <ele>92.9</ele>
        <time>2025-03-07T19:13:31Z</time>
      </trkpt>
      <trkpt lat="47.84771" lon="3.5711">
        <ele>93</ele>
        <time>2025-03-07T19:13:39Z</time>
      </trkpt>
      <trkpt lat="47.84767" lon="3.57096">
        <ele>93.3</ele>
        <time>2025-03-07T19:13:44Z</time>
      </trkpt>
      <trkpt lat="47.84755" lon="3.57059">
        <ele>93.9</ele>
        <time>2025-03-07T19:13:49Z</time>
      </trkpt>
      <trkpt lat="47.8474" lon="3.57019">
        <ele>93.8</ele>
        <time>2025-03-07T19:13:57Z</time>
      </trkpt>
      <trkpt lat="47.84736" lon="3.57006">
        <ele>93.9</ele>
        <time>2025-03-07T19:14:05Z</time>
      </trkpt>
      <trkpt lat="47.84738" lon="3.57004">
        <ele>93.9</ele>
        <time>2025-03-07T19:14:11Z</time>
      </trkpt>
      <trkpt lat="47.8474" lon="3.56999">
        <ele>94</ele>
        <time>2025-03-07T19:14:24Z</time>
      </trkpt>
      <trkpt lat="47.8474" lon="3.56995">
        <ele>94</ele>
        <time>2025-03-07T19:14:42Z</time>
      </trkpt>
      <trkpt lat="47.84739" lon="3.56992">
        <ele>94</ele>
        <time>2025-03-07T19:14:58Z</time>
      </trkpt>
      <trkpt lat="47.84739" lon="3.5699">
        <ele>94</ele>
        <time>2025-03-07T19:15:15Z</time>
      </trkpt>
      <trkpt lat="47.84737" lon="3.56988">
        <ele>94</ele>
        <time>2025-03-07T19:15:19Z</time>
      </trkpt>
      <trkpt lat="47.8474" lon="3.56982">
        <ele>94</ele>
        <time>2025-03-07T19:15:35Z</time>
      </trkpt>
      <trkpt lat="47.84749" lon="3.56961">
        <ele>94</ele>
        <time>2025-03-07T19:15:52Z</time>
      </trkpt>
      <trkpt lat="47.84759" lon="3.56937">
        <ele>94</ele>
        <time>2025-03-07T19:16:04Z</time>
      </trkpt>
      <trkpt lat="47.8477" lon="3.56904">
        <ele>94</ele>
        <time>2025-03-07T19:16:08Z</time>
      </trkpt>
      <trkpt lat="47.84774" lon="3.56894">
        <ele>94</ele>
        <time>2025-03-07T19:16:23Z</time>
      </trkpt>
      <trkpt lat="47.84779" lon="3.56874">
        <ele>94</ele>
        <time>2025-03-07T19:16:38Z</time>
      </trkpt>
      <trkpt lat="47.84784" lon="3.56856">
        <ele>93.9</ele>
        <time>2025-03-07T19:16:56Z</time>
      </trkpt>
      <trkpt lat="47.84794" lon="3.568">
        <ele>94</ele>
        <time>2025-03-07T19:17:03Z</time>
      </trkpt>
      <trkpt lat="47.848" lon="3.56761">
        <ele>94</ele>
        <time>2025-03-07T19:17:20Z</time>
      </trkpt>
      <trkpt lat="47.84802" lon="3.56748">
        <ele>94</ele>
        <time>2025-03-07T19:17:22Z</time>
      </trkpt>
      <trkpt lat="47.84806" lon="3.56721">
        <ele>94</ele>
        <time>2025-03-07T19:17:28Z</time>
      </trkpt>
      <trkpt lat="47.84812" lon="3.56682">
        <ele>93.4</ele>
        <time>2025-03-07T19:17:36Z</time>
      </trkpt>
      <trkpt lat="47.84819" lon="3.56641">
        <ele>93.5</ele>
        <time>2025-03-07T19:17:38Z</time>
      </trkpt>
      <trkpt lat="47.84825" lon="3.56602">
        <ele>93</ele>
        <time>2025-03-07T19:17:52Z</time>
      </trkpt>
      <trkpt lat="47.84833" lon="3.56554">
        <ele>93</ele>
        <time>2025-03-07T19:18:10Z</time>
      </trkpt>
      <trkpt lat="47.84838" lon="3.56525">
        <ele>93</ele>
        <time>2025-03-07T19:18:24Z</time>
      </trkpt>
      <trkpt lat="47.84844" lon="3.5649">
        <ele>92.9</ele>
        <time>2025-03-07T19:18:41Z</time>
      </trkpt>
      <trkpt lat="47.84845" lon="3.56482">
        <ele>92.7</ele>
        <time>2025-03-07T19:18:57Z</time>
      </trkpt>
      <trkpt lat="47.8485" lon="3.56455">
        <ele>92.8</ele>
        <time>2025-03-07T19:19:05Z</time>
      </trkpt>
      <trkpt lat="47.84858" lon="3.56411">
        <ele>93</ele>
        <time>2025-03-07T19:19:10Z</time>
      </trkpt>
      <trkpt lat="47.8486" lon="3.56398">
        <ele>93</ele>
        <time>2025-03-07T19:19:16Z</time>
      </trkpt>
      <trkpt lat="47.84862" lon="3.56383">
        <ele>93</ele>
        <time>2025-03-07T19:19:32Z</time>
      </trkpt>
      <trkpt lat="47.84871" lon="3.56335">
        <ele>90.5</ele>
        <time>2025-03-07T19:19:38Z</time>
      </trkpt>
      <trkpt lat="47.84878" lon="3.56293">
        <ele>90.9</ele>
        <time>2025-03-07T19:19:52Z</time>
      </trkpt>
      <trkpt lat="47.8488" lon="3.5628">
        <ele>91.5</ele>
        <time>2025-03-07T19:19:57Z</time>
      </trkpt>
      <trkpt lat="47.84885" lon="3.56241">
        <ele>93.2</ele>
        <time>2025-03-07T19:20:01Z</time>
      </trkpt>
      <trkpt lat="47.84889" lon="3.56207">
        <ele>94</ele>
        <time>2025-03-07T19:20:04Z</time>
      </trkpt>
      <trkpt lat="47.84892" lon="3.5618">
        <ele>94</ele>
        <time>2025-03-07T19:20:13Z</time>
      </trkpt>
      <trkpt lat="47.84894" lon="3.56146">
        <ele>94.7</ele>
        <time>2025-03-07T19:20:24Z</time>
      </trkpt>
      <trkpt lat="47.84894" lon="3.56121">
        <ele>95.7</ele>
        <time>2025-03-07T19:20:41Z</time>
      </trkpt>
      <trkpt lat="47.84896" lon="3.56114">
        <ele>95.9</ele>
        <time>2025-03-07T19:20:49Z</time>
      </trkpt>
      <trkpt lat="47.84896" lon="3.56111">
        <ele>96</ele>
        <time>2025-03-07T19:20:55Z</time>
      </trkpt>
      <trkpt lat="47.84898" lon="3.56097">
        <ele>96</ele>
        <time>2025-03-07T19:21:08Z</time>
      </trkpt>
      <trkpt lat="47.84902" lon="3.56079">
        <ele>96.2</ele>
        <time>2025-03-07T19:21:19Z</time>
      </trkpt>
      <trkpt lat="47.84907" lon="3.56066">
        <ele>96.6</ele>
        <time>2025-03-07T19:21:21Z</time>
      </trkpt>
      <trkpt lat="47.8491" lon="3.56059">
        <ele>96.9</ele>
        <time>2025-03-07T19:21:30Z</time>
      </trkpt>
      <trkpt lat="47.84913" lon="3.56052">
        <ele>97</ele>
        <time>2025-03-07T19:21:41Z</time>
      </trkpt>
      <trkpt lat="47.84912" lon="3.56045">
        <ele>97</ele>
        <time>2025-03-07T19:22:00Z</time>
      </trkpt>
      <trkpt lat="47.84921" lon="3.56018">
        <ele>97.3</ele>
        <time>2025-03-07T19:22:16Z</time>
      </trkpt>
      <trkpt lat="47.84931" lon="3.55987">
        <ele>97.7</ele>
        <time>2025-03-07T19:22:22Z</time>
      </trkpt>
      <trkpt lat="47.84939" lon="3.55963">
        <ele>98</ele>
        <time>2025-03-07T19:22:40Z</time>
      </trkpt>
      <trkpt lat="47.8495" lon="3.55934">
        <ele>98</ele>
        <time>2025-03-07T19:22:42Z</time>
      </trkpt>
      <trkpt lat="47.84963" lon="3.55904">
        <ele>98</ele>
        <time>2025-03-07T19:22:58Z</time>
      </trkpt>
      <trkpt lat="47.84974" lon="3.55877">
        <ele>98</ele>
        <time>2025-03-07T19:23:18Z</time>
      </trkpt>
      <trkpt lat="47.84979" lon="3.55863">
        <ele>98</ele>
        <time>2025-03-07T19:23:36Z</time>
      </trkpt>
      <trkpt lat="47.84987" lon="3.55848">
        <ele>98</ele>
        <time>2025-03-07T19:23:53Z</time>
      </trkpt>
      <trkpt lat="47.84989" lon="3.55841">
        <ele>98</ele>
        <time>2025-03-07T19:23:55Z</time>
      </trkpt>
      <trkpt lat="47.84993" lon="3.5583">
        <ele>98</ele>
        <time>2025-03-07T19:24:03Z</time>
      </trkpt>
      <trkpt lat="47.85004" lon="3.55803">
        <ele>98</ele>
        <time>2025-03-07T19:24:07Z</time>
      </trkpt>
      <trkpt lat="47.85013" lon="3.55775">
        <ele>98</ele>
        <time>2025-03-07T19:24:22Z</time>
      </trkpt>
      <trkpt lat="47.8502" lon="3.55762">
        <ele>98</ele>
        <time>2025-03-07T19:24:31Z</time>
      </trkpt>
      <trkpt lat="47.85031" lon="3.55737">
        <ele>98</ele>
        <time>2025-03-07T19:24:40Z</time>
      </trkpt>
      <trkpt lat="47.85044" lon="3.55703">
        <ele>97.7</ele>
        <time>2025-03-07T19:24:50Z</time>
      </trkpt>
      <trkpt lat="47.85056" lon="3.55675">
        <ele>98</ele>
        <time>2025-03-07T19:24:52Z</time>
      </trkpt>
      <trkpt lat="47.85068" lon="3.55645">
        <ele>97.6</ele>
        <time>2025-03-07T19:25:00Z</time>
      </trkpt>
      <trkpt lat="47.85078" lon="3.55619">
        <ele>97.1</ele>
        <time>2025-03-07T19:25:18Z</time>
      </trkpt>
      <trkpt lat="47.85087" lon="3.55597">
        <ele>96.9</ele>
        <time>2025-03-07T19:25:25Z</time>
      </trkpt>
      <trkpt lat="47.85099" lon="3.55568">
        <ele>96.7</ele>
        <time>2025-03-07T19:25:41Z</time>
      </trkpt>
      <trkpt lat="47.85106" lon="3.5555">
        <ele>97</ele>
        <time>2025-03-07T19:25:49Z</time>
      </trkpt>
      <trkpt lat="47.85111" lon="3.55537">
        <ele>97</ele>
        <time>2025-03-07T19:25:57Z</time>
      </trkpt>
      <trkpt lat="47.8512" lon="3.55504">
        <ele>97</ele>
        <time>2025-03-07T19:26:05Z</time>
      </trkpt>
      <trkpt lat="47.85129" lon="3.55473">
        <ele>97</ele>
        <time>2025-03-07T19:26:14Z</time>
      </trkpt>
      <trkpt lat="47.85141" lon="3.55434">
        <ele>97</ele>
        <time>2025-03-07T19:26:18Z</time>
      </trkpt>
      <trkpt lat="47.85147" lon="3.5541">
        <ele>97.2</ele>
        <time>2025-03-07T19:26:31Z</time>
      </trkpt>
      <trkpt lat="47.8516" lon="3.55366">
        <ele>98</ele>
        <time>2025-03-07T19:26:36Z</time>
      </trkpt>
      <trkpt lat="47.85169" lon="3.55336">
        <ele>98</ele>
        <time>2025-03-07T19:26:43Z</time>
      </trkpt>
      <trkpt lat="47.85174" lon="3.55322">
        <ele>98</ele>
        <time>2025-03-07T19:26:54Z</time>
      </trkpt>
      <trkpt lat="47.85179" lon="3.55305">
        <ele>98</ele>
        <time>2025-03-07T19:27:03Z</time>
      </trkpt>
      <trkpt lat="47.85165" lon="3.55294">
        <ele>98.4</ele>
        <time>2025-03-07T19:27:06Z</time>
      </trkpt>
      <trkpt lat="47.85151" lon="3.55283">
        <ele>98.4</ele>
        <time>2025-03-07T19:27:08Z</time>
      </trkpt>
      <trkpt lat="47.85129" lon="3.55268">
        <ele>98.6</ele>
        <time>2025-03-07T19:27:20Z</time>
      </trkpt>
      <trkpt lat="47.85101" lon="3.55249">
        <ele>98.7</ele>
        <time>2025-03-07T19:27:31Z</time>
      </trkpt>
      <trkpt lat="47.85082" lon="3.55238">
        <ele>98.8</ele>
        <time>2025-03-07T19:27:48Z</time>
      </trkpt>
      <trkpt lat="47.85071" lon="3.55231">
        <ele>98.8</ele>
        <time>2025-03-07T19:27:55Z</time>
      </trkpt>
      <trkpt lat="47.85055" lon="3.55223">
        <ele>98</ele>
        <time>2025-03-07T19:27:58Z</time>
      </trkpt>
      <trkpt lat="47.85053" lon="3.55222">
        <ele>98</ele>
        <time>2025-03-07T19:28:08Z</time>
      </trkpt>
      <trkpt lat="47.85051" lon="3.55228">
        <ele>98</ele>
        <time>2025-03-07T19:28:17Z</time>
      </trkpt>
      <trkpt lat="47.85048" lon="3.55237">
        <ele>98</ele>
        <time>2025-03-07T19:28:28Z</time>
      </trkpt>
      <trkpt lat="47.85042" lon="3.55253">
        <ele>98</ele>
        <time>2025-03-07T19:28:44Z</time>
      </trkpt>
      <trkpt lat="47.85025" lon="3.553">
        <ele>97.9</ele>
        <time>2025-03-07T19:28:57Z</time>
      </trkpt>
      <trkpt lat="47.85006" lon="3.55351">
        <ele>97.6</ele>
        <time>2025-03-07T19:29:12Z</time>
      </trkpt>
      <trkpt lat="47.84999" lon="3.55371">
        <ele>97.6</ele>
        <time>2025-03-07T19:29:24Z</time>
      </trkpt>
      <trkpt lat="47.84991" lon="3.55394">
        <ele>97.3</ele>
        <time>2025-03-07T19:29:44Z</time>
      </trkpt>
      <trkpt lat="47.84989" lon="3.55401">
        <ele>97.4</ele>
        <time>2025-03-07T19:29:56Z</time>
      </trkpt>
      <trkpt lat="47.84979" lon="3.55427">
        <ele>97.8</ele>
        <time>2025-03-07T19:30:11Z</time>
      </trkpt>
      <trkpt lat="47.84976" lon="3.55436">
        <ele>97.9</ele>
        <time>2025-03-07T19:30:17Z</time>
      </trkpt>
      <trkpt lat="47.84968" lon="3.55452">
        <ele>97.9</ele>
        <time>2025-03-07T19:30:28Z</time>
      </trkpt>
      <trkpt lat="47.8495" lon="3.55481">
        <ele>98</ele>
        <time>2025-03-07T19:30:33Z</time>
      </trkpt>
      <trkpt lat="47.84925" lon="3.55515">
        <ele>98</ele>
        <time>2025-03-07T19:30:52Z</time>
      </trkpt>
      <trkpt lat="47.8491" lon="3.55536">
        <ele>98.2</ele>
        <time>2025-03-07T19:31:05Z</time>
      </trkpt>
      <trkpt lat="47.84898" lon="3.55556">
        <ele>98.3</ele>
        <time>2025-03-07T19:31:09Z</time>
      </trkpt>
      <trkpt lat="47.84893" lon="3.55561">
        <ele>98.3</ele>
        <time>2025-03-07T19:31:25Z</time>
      </trkpt>
      <trkpt lat="47.84888" lon="3.55569">
        <ele>98.5</ele>
        <time>2025-03-07T19:31:36Z</time>
      </trkpt>
      <trkpt lat="47.84876" lon="3.55586">
        <ele>99</ele>
        <time>2025-03-07T19:31:42Z</time>
      </trkpt>
      <trkpt lat="47.84866" lon="3.55598">
        <ele>99</ele>
        <time>2025-03-07T19:31:59Z</time>
      </trkpt>
      <trkpt lat="47.84864" lon="3.55602">
        <ele>99</ele>
        <time>2025-03-07T19:32:15Z</time>
      </trkpt>
      <trkpt lat="47.84856" lon="3.55613">
        <ele>99</ele>
        <time>2025-03-07T19:32:21Z</time>
      </trkpt>
      <trkpt lat="47.84842" lon="3.55633">
        <ele>99</ele>
        <time>2025-03-07T19:32:40Z</time>
      </trkpt>
      <trkpt lat="47.84824" lon="3.55657">
        <ele>99</ele>
        <time>2025-03-07T19:32:57Z</time>
      </trkpt>
      <trkpt lat="47.8481" lon="3.55674">
        <ele>99</ele>
        <time>2025-03-07T19:33:09Z</time>
      </trkpt>
      <trkpt lat="47.84797" lon="3.5569">
        <ele>99</ele>
        <time>2025-03-07T19:33:18Z</time>
      </trkpt>
      <trkpt lat="47.84776" lon="3.55714">
        <ele>99</ele>
        <time>2025-03-07T19:33:31Z</time>
      </trkpt>
      <trkpt lat="47.84753" lon="3.55741">
        <ele>99</ele>
        <time>2025-03-07T19:33:36Z</time>
      </trkpt>
      <trkpt lat="47.84742" lon="3.55752">
        <ele>99</ele>
        <time>2025-03-07T19:33:49Z</time>
      </trkpt>
      <trkpt lat="47.84752" lon="3.55771">
        <ele>99</ele>
        <time>2025-03-07T19:34:04Z</time>
      </trkpt>
      <trkpt lat="47.84767" lon="3.55802">
        <ele>99</ele>
        <time>2025-03-07T19:34:10Z</time>
      </trkpt>
      <trkpt lat="47.84783" lon="3.55834">
        <ele>99</ele>
        <time>2025-03-07T19:34:27Z</time>
      </trkpt>
      <trkpt lat="47.84801" lon="3.55869">
        <ele>99</ele>
        <time>2025-03-07T19:34:47Z</time>
      </trkpt>
      <trkpt lat="47.84808" lon="3.55882">
        <ele>98.9</ele>
        <time>2025-03-07T19:35:01Z</time>
      </trkpt>
      <trkpt lat="47.84826" lon="3.55918">
        <ele>98.3</ele>
        <time>2025-03-07T19:35:17Z</time>
      </trkpt>
      <trkpt lat="47.84842" lon="3.5595">
        <ele>98</ele>
        <time>2025-03-07T19:35:25Z</time>
      </trkpt>
      <trkpt lat="47.84858" lon="3.55982">
        <ele>98</ele>
        <time>2025-03-07T19:35:31Z</time>
      </trkpt>
      <trkpt lat="47.84867" lon="3.56001">
        <ele>98</ele>
        <time>2025-03-07T19:35:40Z</time>
      </trkpt>
      <trkpt lat="47.84879" lon="3.56038">
        <ele>97.2</ele>
        <time>2025-03-07T19:35:55Z</time>
      </trkpt>
      <trkpt lat="47.84881" lon="3.56046">
        <ele>97.1</ele>
        <time>2025-03-07T19:36:13Z</time>
      </trkpt>
      <trkpt lat="47.84884" lon="3.5606">
        <ele>96.9</ele>
        <time>2025-03-07T19:36:28Z</time>
      </trkpt>
      <trkpt lat="47.84888" lon="3.56077">
        <ele>96.3</ele>
        <time>2025-03-07T19:36:46Z</time>
      </trkpt>
      <trkpt lat="47.84891" lon="3.56102">
        <ele>96</ele>
        <time>2025-03-07T19:36:54Z</time>
      </trkpt>
      <trkpt lat="47.84893" lon="3.56121">
        <ele>95.7</ele>
        <time>2025-03-07T19:37:06Z</time>
      </trkpt>
      <trkpt lat="47.84893" lon="3.56146">
        <ele>94.8</ele>
        <time>2025-03-07T19:37:18Z</time>
      </trkpt>
      <trkpt lat="47.8489" lon="3.56179">
        <ele>94</ele>
        <time>2025-03-07T19:37:20Z</time>
      </trkpt>
      <trkpt lat="47.84888" lon="3.56207">
        <ele>94</ele>
        <time>2025-03-07T19:37:27Z</time>
      </trkpt>
      <trkpt lat="47.84884" lon="3.56241">
        <ele>93.1</ele>
        <time>2025-03-07T19:37:43Z</time>
      </trkpt>
      <trkpt lat="47.84879" lon="3.5628">
        <ele>91.5</ele>
        <time>2025-03-07T19:37:55Z</time>
      </trkpt>
      <trkpt lat="47.84877" lon="3.56293">
        <ele>91</ele>
        <time>2025-03-07T19:38:11Z</time>
      </trkpt>
      <trkpt lat="47.8487" lon="3.56334">
        <ele>90.4</ele>
        <time>2025-03-07T19:38:23Z</time>
      </trkpt>
      <trkpt lat="47.84861" lon="3.56383">
        <ele>93</ele>
        <time>2025-03-07T19:38:33Z</time>
      </trkpt>
      <trkpt lat="47.84859" lon="3.56396">
        <ele>93</ele>
        <time>2025-03-07T19:38:35Z</time>
      </trkpt>
      <trkpt lat="47.84857" lon="3.56411">
        <ele>93</ele>
        <time>2025-03-07T19:38:53Z</time>
      </trkpt>
      <trkpt lat="47.84849" lon="3.56453">
        <ele>92.8</ele>
        <time>2025-03-07T19:39:08Z</time>
      </trkpt>
      <trkpt lat="47.84839" lon="3.56449">
        <ele>93</ele>
        <time>2025-03-07T19:39:15Z</time>
      </trkpt>
      <trkpt lat="47.84817" lon="3.56435">
        <ele>93</ele>
        <time>2025-03-07T19:39:27Z</time>
      </trkpt>
      <trkpt lat="47.84789" lon="3.56417">
        <ele>93</ele>
        <time>2025-03-07T19:39:35Z</time>
      </trkpt>
      <trkpt lat="47.84776" lon="3.56407">
        <ele>93.1</ele>
        <time>2025-03-07T19:39:42Z</time>
      </trkpt>
      <trkpt lat="47.84761" lon="3.56396">
        <ele>93.6</ele>
        <time>2025-03-07T19:40:00Z</time>
      </trkpt>
      <trkpt lat="47.8474" lon="3.56382">
        <ele>93.5</ele>
        <time>2025-03-07T19:40:18Z</time>
      </trkpt>
      <trkpt lat="47.84718" lon="3.56366">
        <ele>93</ele>
        <time>2025-03-07T19:40:27Z</time>
      </trkpt>
      <trkpt lat="47.84712" lon="3.56361">
        <ele>93</ele>
        <time>2025-03-07T19:40:44Z</time>
      </trkpt>
      <trkpt lat="47.84694" lon="3.56342">
        <ele>93</ele>
        <time>2025-03-07T19:41:04Z</time>
      </trkpt>
      <trkpt lat="47.84688" lon="3.56335">
        <ele>93.2</ele>
        <time>2025-03-07T19:41:13Z</time>
      </trkpt>
      <trkpt lat="47.84672" lon="3.56315">
        <ele>93.8</ele>
        <time>2025-03-07T19:41:21Z</time>
      </trkpt>
      <trkpt lat="47.84661" lon="3.56302">
        <ele>93.9</ele>
        <time>2025-03-07T19:41:34Z</time>
      </trkpt>
      <trkpt lat="47.84659" lon="3.563">
        <ele>93.8</ele>
        <time>2025-03-07T19:41:54Z</time>
      </trkpt>
      <trkpt lat="47.84643" lon="3.56276">
        <ele>93.9</ele>
        <time>2025-03-07T19:42:02Z</time>
      </trkpt>
      <trkpt lat="47.84639" lon="3.5627">
        <ele>94</ele>
        <time>2025-03-07T19:42:04Z</time>
      </trkpt>
      <trkpt lat="47.84618" lon="3.56231">
        <ele>95</ele>
        <time>2025-03-07T19:42:18Z</time>
      </trkpt>
      <trkpt lat="47.84603" lon="3.56195">
        <ele>95.3</ele>
        <time>2025-03-07T19:42:34Z</time>
      </trkpt>
      <trkpt lat="47.84599" lon="3.56187">
        <ele>95.3</ele>
        <time>2025-03-07T19:42:44Z</time>
      </trkpt>
      <trkpt lat="47.84597" lon="3.56184">
        <ele>95.3</ele>
        <time>2025-03-07T19:43:02Z</time>
      </trkpt>
      <trkpt lat="47.84595" lon="3.56183">
        <ele>95.4</ele>
        <time>2025-03-07T19:43:10Z</time>
      </trkpt>
      <trkpt lat="47.84592" lon="3.56183">
        <ele>95.6</ele>
        <time>2025-03-07T19:43:30Z</time>
      </trkpt>
      <trkpt lat="47.84587" lon="3.56187">
        <ele>95.8</ele>
        <time>2025-03-07T19:43:46Z</time>
      </trkpt>
      <trkpt lat="47.8458" lon="3.56195">
        <ele>96.1</ele>
        <time>2025-03-07T19:44:05Z</time>
      </trkpt>
      <trkpt lat="47.84562" lon="3.56212">
        <ele>96.8</ele>
        <time>2025-03-07T19:44:24Z</time>
      </trkpt>
      <trkpt lat="47.84542" lon="3.56238">
        <ele>97</ele>
        <time>2025-03-07T19:44:40Z</time>
      </trkpt>
      <trkpt lat="47.84527" lon="3.56254">
        <ele>97.1</ele>
        <time>2025-03-07T19:44:47Z</time>
      </trkpt>
      <trkpt lat="47.84509" lon="3.5627">
        <ele>97.2</ele>
        <time>2025-03-07T19:45:02Z</time>
      </trkpt>
      <trkpt lat="47.84495" lon="3.56282">
        <ele>97.3</ele>
        <time>2025-03-07T19:45:22Z</time>
      </trkpt>
      <trkpt lat="47.84462" lon="3.56306">
        <ele>98.4</ele>
        <time>2025-03-07T19:45:28Z</time>
      </trkpt>
      <trkpt lat="47.84457" lon="3.56312">
        <ele>98.6</ele>
        <time>2025-03-07T19:45:39Z</time>
      </trkpt>
      <trkpt lat="47.84452" lon="3.56322">
        <ele>98.7</ele>
        <time>2025-03-07T19:45:53Z</time>
      </trkpt>
      <trkpt lat="47.84455" lon="3.56326">
        <ele>98.6</ele>
        <time>2025-03-07T19:46:11Z</time>
      </trkpt>
      <trkpt lat="47.84461" lon="3.5634">
        <ele>98.4</ele>
        <time>2025-03-07T19:46:29Z</time>
      </trkpt>
      <trkpt lat="47.84484" lon="3.56406">
        <ele>97.7</ele>
        <time>2025-03-07T19:46:41Z</time>
      </trkpt>
      <trkpt lat="47.845" lon="3.56452">
        <ele>95.7</ele>
        <time>2025-03-07T19:46:47Z</time>
      </trkpt>
      <trkpt lat="47.84516" lon="3.56494">
        <ele>94.1</ele>
        <time>2025-03-07T19:46:58Z</time>
      </trkpt>
      <trkpt lat="47.84529" lon="3.56534">
        <ele>94</ele>
        <time>2025-03-07T19:47:15Z</time>
      </trkpt>
      <trkpt lat="47.84544" lon="3.56579">
        <ele>94</ele>
        <time>2025-03-07T19:47:25Z</time>
      </trkpt>
      <trkpt lat="47.84559" lon="3.56629">
        <ele>93.9</ele>
        <time>2025-03-07T19:47:34Z</time>
      </trkpt>
      <trkpt lat="47.8457" lon="3.56658">
        <ele>93.1</ele>
        <time>2025-03-07T19:47:48Z</time>
      </trkpt>
      <trkpt lat="47.84582" lon="3.56697">
        <ele>93.9</ele>
        <time>2025-03-07T19:48:03Z</time>
      </trkpt>
      <trkpt lat="47.84593" lon="3.56732">
        <ele>93.6</ele>
        <time>2025-03-07T19:48:18Z</time>
      </trkpt>
      <trkpt lat="47.84607" lon="3.56772">
        <ele>94</ele>
        <time>2025-03-07T19:48:21Z</time>
      </trkpt>
      <trkpt lat="47.8461" lon="3.5678">
        <ele>94</ele>
        <time>2025-03-07T19:48:34Z</time>
      </trkpt>
      <trkpt lat="47.84629" lon="3.56826">
        <ele>94</ele>
        <time>2025-03-07T19:48:36Z</time>
      </trkpt>
      <trkpt lat="47.84635" lon="3.56838">
        <ele>94</ele>
        <time>2025-03-07T19:48:54Z</time>
      </trkpt>
      <trkpt lat="47.84637" lon="3.56844">
        <ele>94</ele>
        <time>2025-03-07T19:48:58Z</time>
      </trkpt>
      <trkpt lat="47.8463" lon="3.56849">
        <ele>94</ele>
        <time>2025-03-07T19:49:16Z</time>
      </trkpt>
      <trkpt lat="47.84607" lon="3.56866">
        <ele>94</ele>
        <time>2025-03-07T19:49:34Z</time>
      </trkpt>
      <trkpt lat="47.84587" lon="3.56881">
        <ele>94</ele>
        <time>2025-03-07T19:49:44Z</time>
      </trkpt>
      <trkpt lat="47.84558" lon="3.56902">
        <ele>94</ele>
        <time>2025-03-07T19:50:03Z</time>
      </trkpt>
      <trkpt lat="47.84538" lon="3.56916">
        <ele>93.4</ele>
        <time>2025-03-07T19:50:23Z</time>
      </trkpt>
      <trkpt lat="47.84536" lon="3.56918">
        <ele>93.3</ele>
        <time>2025-03-07T19:50:38Z</time>
      </trkpt>
      <trkpt lat="47.84535" lon="3.56922">
        <ele>93.2</ele>
        <time>2025-03-07T19:50:44Z</time>
      </trkpt>
      <trkpt lat="47.84535" lon="3.56929">
        <ele>93.1</ele>
        <time>2025-03-07T19:50:58Z</time>
      </trkpt>
      <trkpt lat="47.8454" lon="3.56951">
        <ele>93</ele>
        <time>2025-03-07T19:51:00Z</time>
      </trkpt>
      <trkpt lat="47.84558" lon="3.57015">
        <ele>92.9</ele>
        <time>2025-03-07T19:51:06Z</time>
      </trkpt>
      <trkpt lat="47.84562" lon="3.57028">
        <ele>92.8</ele>
        <time>2025-03-07T19:51:17Z</time>
      </trkpt>
      <trkpt lat="47.84577" lon="3.5707">
        <ele>93</ele>
        <time>2025-03-07T19:51:35Z</time>
      </trkpt>
      <trkpt lat="47.84593" lon="3.5711">
        <ele>93.6</ele>
        <time>2025-03-07T19:51:53Z</time>
      </trkpt>
      <trkpt lat="47.846" lon="3.57131">
        <ele>93.8</ele>
        <time>2025-03-07T19:52:08Z</time>
      </trkpt>
      <trkpt lat="47.84609" lon="3.57146">
        <ele>94</ele>
        <time>2025-03-07T19:52:19Z</time>
      </trkpt>
      <trkpt lat="47.84623" lon="3.57176">
        <ele>93.7</ele>
        <time>2025-03-07T19:52:25Z</time>
      </trkpt>
      <trkpt lat="47.84629" lon="3.57194">
        <ele>94</ele>
        <time>2025-03-07T19:52:35Z</time>
      </trkpt>
      <trkpt lat="47.84632" lon="3.57206">
        <ele>94</ele>
        <time>2025-03-07T19:52:54Z</time>
      </trkpt>
      <trkpt lat="47.84647" lon="3.57253">
        <ele>93.7</ele>
        <time>2025-03-07T19:53:09Z</time>
      </trkpt>
      <trkpt lat="47.84659" lon="3.57289">
        <ele>93</ele>
        <time>2025-03-07T19:53:23Z</time>
      </trkpt>
      <trkpt lat="47.84668" lon="3.57317">
        <ele>93</ele>
        <time>2025-03-07T19:53:34Z</time>
      </trkpt>
      <trkpt lat="47.84657" lon="3.57328">
        <ele>93</ele>
        <time>2025-03-07T19:53:43Z</time>
      </trkpt>
      <trkpt lat="47.84631" lon="3.57351">
        <ele>92.6</ele>
        <time>2025-03-07T19:53:59Z</time>
      </trkpt>
      <trkpt lat="47.84604" lon="3.57374">
        <ele>93</ele>
        <time>2025-03-07T19:54:17Z</time>
      </trkpt>
      <trkpt lat="47.84601" lon="3.57377">
        <ele>93</ele>
        <time>2025-03-07T19:54:20Z</time>
      </trkpt>
      <trkpt lat="47.84585" lon="3.57397">
        <ele>92.5</ele>
        <time>2025-03-07T19:54:31Z</time>
      </trkpt>
      <trkpt lat="47.84594" lon="3.57404">
        <ele>92.1</ele>
        <time>2025-03-07T19:54:35Z</time>
      </trkpt>
      <trkpt lat="47.84611" lon="3.57419">
        <ele>91.9</ele>
        <time>2025-03-07T19:54:48Z</time>
      </trkpt>
      <trkpt lat="47.84614" lon="3.57422">
        <ele>91.8</ele>
        <time>2025-03-07T19:54:51Z</time>
      </trkpt>
      <trkpt lat="47.8463" lon="3.5744">
        <ele>91.7</ele>
        <time>2025-03-07T19:55:06Z</time>
      </trkpt>
      <trkpt lat="47.84638" lon="3.57452">
        <ele>92</ele>
        <time>2025-03-07T19:55:17Z</time>
      </trkpt>
      <trkpt lat="47.84644" lon="3.57465">
        <ele>92.1</ele>
        <time>2025-03-07T19:55:21Z</time>
      </trkpt>
      <trkpt lat="47.84653" lon="3.57495">
        <ele>92.1</ele>
        <time>2025-03-07T19:55:39Z</time>
      </trkpt>
      <trkpt lat="47.84668" lon="3.57543">
        <ele>92.5</ele>
        <time>2025-03-07T19:55:52Z</time>
      </trkpt>
      <trkpt lat="47.84671" lon="3.57556">
        <ele>92.3</ele>
        <time>2025-03-07T19:55:57Z</time>
      </trkpt>
      <trkpt lat="47.84677" lon="3.57579">
        <ele>92.2</ele>
        <time>2025-03-07T19:56:17Z</time>
      </trkpt>
      <trkpt lat="47.8468" lon="3.57591">
        <ele>92.3</ele>
        <time>2025-03-07T19:56:22Z</time>
      </trkpt>
      <trkpt lat="47.84684" lon="3.57622">
        <ele>92.3</ele>
        <time>2025-03-07T19:56:24Z</time>
      </trkpt>
      <trkpt lat="47.84686" lon="3.57632">
        <ele>92.4</ele>
        <time>2025-03-07T19:56:43Z</time>
      </trkpt>
      <trkpt lat="47.84686" lon="3.57639">
        <ele>92.4</ele>
        <time>2025-03-07T19:56:46Z</time>
      </trkpt>
      <trkpt lat="47.84688" lon="3.57677">
        <ele>92.4</ele>
        <time>2025-03-07T19:57:05Z</time>
      </trkpt>
      <trkpt lat="47.84691" lon="3.57716">
        <ele>92.7</ele>
        <time>2025-03-07T19:57:15Z</time>
      </trkpt>
      <trkpt lat="47.84695" lon="3.57746">
        <ele>92.2</ele>
        <time>2025-03-07T19:57:20Z</time>
      </trkpt>
      <trkpt lat="47.84697" lon="3.57768">
        <ele>91.4</ele>
        <time>2025-03-07T19:57:36Z</time>
      </trkpt>
      <trkpt lat="47.84699" lon="3.57782">
        <ele>91.1</ele>
        <time>2025-03-07T19:57:55Z</time>
      </trkpt>
      <trkpt lat="47.847" lon="3.57789">
        <ele>91.2</ele>
        <time>2025-03-07T19:58:12Z</time>
      </trkpt>
      <trkpt lat="47.84702" lon="3.57801">
        <ele>91.3</ele>
        <time>2025-03-07T19:58:28Z</time>
      </trkpt>
      <trkpt lat="47.84704" lon="3.57805">
        <ele>91.3</ele>
        <time>2025-03-07T19:58:34Z</time>
      </trkpt>
      <trkpt lat="47.84706" lon="3.57808">
        <ele>91.4</ele>
        <time>2025-03-07T19:58:51Z</time>
      </trkpt>
      <trkpt lat="47.84717" lon="3.57817">
        <ele>91.8</ele>
        <time>2025-03-07T19:59:10Z</time>
      </trkpt>
      <trkpt lat="47.84722" lon="3.57819">
        <ele>92</ele>
        <time>2025-03-07T19:59:24Z</time>
      </trkpt>
      <trkpt lat="47.84727" lon="3.57819">
        <ele>91.8</ele>
        <time>2025-03-07T19:59:30Z</time>
      </trkpt>
      <trkpt lat="47.84732" lon="3.57819">
        <ele>91.7</ele>
        <time>2025-03-07T19:59:39Z</time>
      </trkpt>
      <trkpt lat="47.84744" lon="3.57814">
        <ele>91.2</ele>
        <time>2025-03-07T19:59:49Z</time>
      </trkpt>
      <trkpt lat="47.84761" lon="3.57798">
        <ele>91.2</ele>
        <time>2025-03-07T19:59:55Z</time>
      </trkpt>
      <trkpt lat="47.84775" lon="3.57782">
        <ele>91.1</ele>
        <time>2025-03-07T20:00:10Z</time>
      </trkpt>
      <trkpt lat="47.84784" lon="3.57772">
        <ele>91.2</ele>
        <time>2025-03-07T20:00:16Z</time>
      </trkpt>
      <trkpt lat="47.84803" lon="3.57753">
        <ele>91.1</ele>
        <time>2025-03-07T20:00:29Z</time>
      </trkpt>
      <trkpt lat="47.84814" lon="3.5774">
        <ele>91.3</ele>
        <time>2025-03-07T20:00:49Z</time>
      </trkpt>
      <trkpt lat="47.84814" lon="3.57739">
        <ele>91.4</ele>
        <time>2025-03-07T20:00:56Z</time>
      </trkpt>
      <trkpt lat="47.84815" lon="3.57733">
        <ele>91.6</ele>
        <time>2025-03-07T20:01:11Z</time>
      </trkpt>
      <trkpt lat="47.84815" lon="3.57725">
        <ele>91.9</ele>
        <time>2025-03-07T20:01:15Z</time>
      </trkpt>
      <trkpt lat="47.84814" lon="3.57707">
        <ele>92.5</ele>
        <time>2025-03-07T20:01:34Z</time>
      </trkpt>
      <trkpt lat="47.8481" lon="3.57673">
        <ele>93.1</ele>
        <time>2025-03-07T20:01:47Z</time>
      </trkpt>
      <trkpt lat="47.84807" lon="3.57641">
        <ele>93.9</ele>
        <time>2025-03-07T20:02:05Z</time>
      </trkpt>
      <trkpt lat="47.84805" lon="3.57608">
        <ele>94</ele>
        <time>2025-03-07T20:02:19Z</time>
      </trkpt>
      <trkpt lat="47.84805" lon="3.57598">
        <ele>94</ele>
        <time>2025-03-07T20:02:28Z</time>
      </trkpt>
      <trkpt lat="47.84804" lon="3.57588">
        <ele>94</ele>
        <time>2025-03-07T20:02:47Z</time>
      </trkpt>
      <trkpt lat="47.84802" lon="3.57574">
        <ele>94</ele>
        <time>2025-03-07T20:03:05Z</time>
      </trkpt>
      <trkpt lat="47.84802" lon="3.57564">
        <ele>94</ele>
        <time>2025-03-07T20:03:15Z</time>
      </trkpt>
      <trkpt lat="47.84804" lon="3.57557">
        <ele>94</ele>
        <time>2025-03-07T20:03:19Z</time>
      </trkpt>
      <trkpt lat="47.84808" lon="3.57553">
        <ele>94</ele>
        <time>2025-03-07T20:03:23Z</time>
      </trkpt>
      <trkpt lat="47.84825" lon="3.57546">
        <ele>94</ele>
        <time>2025-03-07T20:03:27Z</time>
      </trkpt>
      <trkpt lat="47.84829" lon="3.57544">
        <ele>94</ele>
        <time>2025-03-07T20:03:30Z</time>
      </trkpt>
      <trkpt lat="47.84835" lon="3.57541">
        <ele>94</ele>
        <time>2025-03-07T20:03:37Z</time>
      </trkpt>
      <trkpt lat="47.84839" lon="3.57548">
        <ele>93.9</ele>
        <time>2025-03-07T20:03:39Z</time>
      </trkpt>
      <trkpt lat="47.84841" lon="3.57553">
        <ele>94</ele>
        <time>2025-03-07T20:03:47Z</time>
      </trkpt>
      <trkpt lat="47.84844" lon="3.57558">
        <ele>94</ele>
        <time>2025-03-07T20:03:50Z</time>
      </trkpt>
      <trkpt lat="47.84851" lon="3.57565">
        <ele>94</ele>
        <time>2025-03-07T20:04:09Z</time>
      </trkpt>
      <trkpt lat="47.84859" lon="3.57571">
        <ele>94</ele>
        <time>2025-03-07T20:04:27Z</time>
      </trkpt>
      <trkpt lat="47.84872" lon="3.57576">
        <ele>94</ele>
        <time>2025-03-07T20:04:40Z</time>
      </trkpt>
      <trkpt lat="47.84879" lon="3.57578">
        <ele>94</ele>
        <time>2025-03-07T20:04:57Z</time>
      </trkpt>
      <trkpt lat="47.84888" lon="3.57585">
        <ele>94</ele>
        <time>2025-03-07T20:05:12Z</time>
      </trkpt>
      <trkpt lat="47.84895" lon="3.57593">
        <ele>93.9</ele>
        <time>2025-03-07T20:05:28Z</time>
      </trkpt>
      <trkpt lat="47.84903" lon="3.57607">
        <ele>93.9</ele>
        <time>2025-03-07T20:05:36Z</time>
      </trkpt>
      <trkpt lat="47.84912" lon="3.57623">
        <ele>94.3</ele>
        <time>2025-03-07T20:05:39Z</time>
      </trkpt>
      <trkpt lat="47.84926" lon="3.57649">
        <ele>94.1</ele>
        <time>2025-03-07T20:05:47Z</time>
      </trkpt>
      <trkpt lat="47.84938" lon="3.57676">
        <ele>93.4</ele>
        <time>2025-03-07T20:06:00Z</time>
      </trkpt>
      <trkpt lat="47.84941" lon="3.57688">
        <ele>92.5</ele>
        <time>2025-03-07T20:06:04Z</time>
      </trkpt>
      <trkpt lat="47.84949" lon="3.57711">
        <ele>90.7</ele>
        <time>2025-03-07T20:06:18Z</time>
      </trkpt>
      <trkpt lat="47.84969" lon="3.57776">
        <ele>90.9</ele>
        <time>2025-03-07T20:06:27Z</time>
      </trkpt>
      <trkpt lat="47.84973" lon="3.5779">
        <ele>92.7</ele>
        <time>2025-03-07T20:06:36Z</time>
      </trkpt>
      <trkpt lat="47.84976" lon="3.57803">
        <ele>94.5</ele>
        <time>2025-03-07T20:06:38Z</time>
      </trkpt>
      <trkpt lat="47.84977" lon="3.57816">
        <ele>94.9</ele>
        <time>2025-03-07T20:06:58Z</time>
      </trkpt>
      <trkpt lat="47.84979" lon="3.57836">
        <ele>95</ele>
        <time>2025-03-07T20:07:06Z</time>
      </trkpt>
      <trkpt lat="47.8498" lon="3.57856">
        <ele>95</ele>
        <time>2025-03-07T20:07:12Z</time>
      </trkpt>
      <trkpt lat="47.8497" lon="3.57858">
        <ele>94.9</ele>
        <time>2025-03-07T20:07:28Z</time>
      </trkpt>
      <trkpt lat="47.84951" lon="3.57859">
        <ele>94.2</ele>
        <time>2025-03-07T20:07:33Z</time>
      </trkpt>
      <trkpt lat="47.84935" lon="3.57861">
        <ele>94</ele>
        <time>2025-03-07T20:07:48Z</time>
      </trkpt>
      <trkpt lat="47.84922" lon="3.57863">
        <ele>94.1</ele>
        <time>2025-03-07T20:07:50Z</time>
      </trkpt>
      <trkpt lat="47.84892" lon="3.57868">
        <ele>93.3</ele>
        <time>2025-03-07T20:08:05Z</time>
      </trkpt>
      <trkpt lat="47.84873" lon="3.57875">
        <ele>93.2</ele>
        <time>2025-03-07T20:08:17Z</time>
      </trkpt>
      <trkpt lat="47.84865" lon="3.57877">
        <ele>93.2</ele>
        <time>2025-03-07T20:08:25Z</time>
      </trkpt>
      <trkpt lat="47.84833" lon="3.57889">
        <ele>94</ele>
        <time>2025-03-07T20:08:37Z</time>
      </trkpt>
      <trkpt lat="47.84808" lon="3.57898">
        <ele>93.7</ele>
        <time>2025-03-07T20:08:54Z</time>
      </trkpt>
      <trkpt lat="47.84801" lon="3.57901">
        <ele>93.6</ele>
        <time>2025-03-07T20:09:10Z</time>
      </trkpt>
      <trkpt lat="47.84759" lon="3.57914">
        <ele>93.8</ele>
        <time>2025-03-07T20:09:18Z</time>
      </trkpt>
      <trkpt lat="47.84752" lon="3.57918">
        <ele>94.1</ele>
        <time>2025-03-07T20:09:34Z</time>
      </trkpt>
      <trkpt lat="47.84731" lon="3.57924">
        <ele>94.2</ele>
        <time>2025-03-07T20:09:51Z</time>
      </trkpt>
      <trkpt lat="47.84681" lon="3.57932">
        <ele>94.5</ele>
        <time>2025-03-07T20:09:57Z</time>
      </trkpt>
      <trkpt lat="47.84663" lon="3.57934">
        <ele>94.6</ele>
        <time>2025-03-07T20:10:07Z</time>
      </trkpt>
      <trkpt lat="47.84662" lon="3.57924">
        <ele>94.3</ele>
        <time>2025-03-07T20:10:09Z</time>
      </trkpt>
      <trkpt lat="47.84659" lon="3.57916">
        <ele>93.9</ele>
        <time>2025-03-07T20:10:23Z</time>
      </trkpt>
      <trkpt lat="47.84643" lon="3.57891">
        <ele>92</ele>
        <time>2025-03-07T20:10:28Z</time>
      </trkpt>
      <trkpt lat="47.84629" lon="3.57862">
        <ele>91</ele>
        <time>2025-03-07T20:10:38Z</time>
      </trkpt>
      <trkpt lat="47.84626" lon="3.57857">
        <ele>91.1</ele>
        <time>2025-03-07T20:10:56Z</time>
      </trkpt>
      <trkpt lat="47.84614" lon="3.57751">
        <ele>91</ele>
        <time>2025-03-07T20:11:07Z</time>
      </trkpt>
      <trkpt lat="47.84606" lon="3.57682">
        <ele>91.2</ele>
        <time>2025-03-07T20:11:15Z</time>
      </trkpt>
      <trkpt lat="47.84599" lon="3.57615">
        <ele>91.4</ele>
        <time>2025-03-07T20:11:22Z</time>
      </trkpt>
      <trkpt lat="47.84596" lon="3.57597">
        <ele>91.3</ele>
        <time>2025-03-07T20:11:26Z</time>
      </trkpt>
      <trkpt lat="47.84593" lon="3.5757">
        <ele>91</ele>
        <time>2025-03-07T20:11:28Z</time>
      </trkpt>
      <trkpt lat="47.8459" lon="3.57554">
        <ele>91</ele>
        <time>2025-03-07T20:11:43Z</time>
      </trkpt>
      <trkpt lat="47.84587" lon="3.57543">
        <ele>91</ele>
        <time>2025-03-07T20:11:50Z</time>
      </trkpt>
      <trkpt lat="47.84584" lon="3.57535">
        <ele>91</ele>
        <time>2025-03-07T20:11:56Z</time>
      </trkpt>
      <trkpt lat="47.84579" lon="3.5753">
        <ele>91</ele>
        <time>2025-03-07T20:12:05Z</time>
      </trkpt>
      <trkpt lat="47.84573" lon="3.57527">
        <ele>91</ele>
        <time>2025-03-07T20:12:14Z</time>
      </trkpt>
      <trkpt lat="47.84565" lon="3.57524">
        <ele>91</ele>
        <time>2025-03-07T20:12:17Z</time>
      </trkpt>
      <trkpt lat="47.84549" lon="3.57526">
        <ele>91.2</ele>
        <time>2025-03-07T20:12:25Z</time>
      </trkpt>
      <trkpt lat="47.84532" lon="3.5753">
        <ele>91.9</ele>
        <time>2025-03-07T20:12:41Z</time>
      </trkpt>
      <trkpt lat="47.84515" lon="3.57534">
        <ele>92</ele>
        <time>2025-03-07T20:12:49Z</time>
      </trkpt>
      <trkpt lat="47.84498" lon="3.57539">
        <ele>92</ele>
        <time>2025-03-07T20:13:01Z</time>
      </trkpt>
      <trkpt lat="47.84491" lon="3.57542">
        <ele>91.8</ele>
        <time>2025-03-07T20:13:09Z</time>
      </trkpt>
      <trkpt lat="47.84472" lon="3.57551">
        <ele>91.8</ele>
        <time>2025-03-07T20:13:26Z</time>
      </trkpt>
      <trkpt lat="47.84457" lon="3.5756">
        <ele>91.6</ele>
        <time>2025-03-07T20:13:38Z</time>
      </trkpt>
      <trkpt lat="47.8445" lon="3.57564">
        <ele>91.7</ele>
        <time>2025-03-07T20:13:44Z</time>
      </trkpt>
      <trkpt lat="47.84426" lon="3.57577">
        <ele>92.5</ele>
        <time>2025-03-07T20:14:03Z</time>
      </trkpt>
      <trkpt lat="47.84423" lon="3.57579">
        <ele>92.7</ele>
        <time>2025-03-07T20:14:06Z</time>
      </trkpt>
      <trkpt lat="47.84411" lon="3.57583">
        <ele>92.6</ele>
        <time>2025-03-07T20:14:09Z</time>
      </trkpt>
      <trkpt lat="47.84392" lon="3.5759">
        <ele>91.7</ele>
        <time>2025-03-07T20:14:25Z</time>
      </trkpt>
      <trkpt lat="47.84372" lon="3.57599">
        <ele>92.1</ele>
        <time>2025-03-07T20:14:29Z</time>
      </trkpt>
      <trkpt lat="47.84358" lon="3.57606">
        <ele>92.7</ele>
        <time>2025-03-07T20:14:47Z</time>
      </trkpt>
      <trkpt lat="47.84346" lon="3.57613">
        <ele>93</ele>
        <time>2025-03-07T20:14:50Z</time>
      </trkpt>
      <trkpt lat="47.84336" lon="3.57621">
        <ele>93</ele>
        <time>2025-03-07T20:14:53Z</time>
      </trkpt>
      <trkpt lat="47.84329" lon="3.57629">
        <ele>93.1</ele>
        <time>2025-03-07T20:14:55Z</time>
      </trkpt>
      <trkpt lat="47.84326" lon="3.57627">
        <ele>93.1</ele>
        <time>2025-03-07T20:15:02Z</time>
      </trkpt>
      <trkpt lat="47.84314" lon="3.57627">
        <ele>93.4</ele>
        <time>2025-03-07T20:15:09Z</time>
      </trkpt>
      <trkpt lat="47.84297" lon="3.57633">
        <ele>93.5</ele>
        <time>2025-03-07T20:15:24Z</time>
      </trkpt>
      <trkpt lat="47.84283" lon="3.57639">
        <ele>93.2</ele>
        <time>2025-03-07T20:15:34Z</time>
      </trkpt>
      <trkpt lat="47.84263" lon="3.57647">
        <ele>93.1</ele>
        <time>2025-03-07T20:15:41Z</time>
      </trkpt>
      <trkpt lat="47.84255" lon="3.5765">
        <ele>93.3</ele>
        <time>2025-03-07T20:15:48Z</time>
      </trkpt>
      <trkpt lat="47.84232" lon="3.57657">
        <ele>93.7</ele>
        <time>2025-03-07T20:15:58Z</time>
      </trkpt>
      <trkpt lat="47.84223" lon="3.57658">
        <ele>93.7</ele>
        <time>2025-03-07T20:16:17Z</time>
      </trkpt>
      <trkpt lat="47.84209" lon="3.57658">
        <ele>93.7</ele>
        <time>2025-03-07T20:16:30Z</time>
      </trkpt>
      <trkpt lat="47.8419" lon="3.57655">
        <ele>93.7</ele>
        <time>2025-03-07T20:16:48Z</time>
      </trkpt>
      <trkpt lat="47.84169" lon="3.57651">
        <ele>93.9</ele>
        <time>2025-03-07T20:17:02Z</time>
      </trkpt>
      <trkpt lat="47.84146" lon="3.57645">
        <ele>94</ele>
        <time>2025-03-07T20:17:15Z</time>
      </trkpt>
      <trkpt lat="47.84127" lon="3.57635">
        <ele>93.8</ele>
        <time>2025-03-07T20:17:35Z</time>
      </trkpt>
      <trkpt lat="47.8411" lon="3.5762">
        <ele>93.3</ele>
        <time>2025-03-07T20:17:53Z</time>
      </trkpt>
      <trkpt lat="47.84086" lon="3.57599">
        <ele>93</ele>
        <time>2025-03-07T20:18:06Z</time>
      </trkpt>
      <trkpt lat="47.84065" lon="3.57579">
        <ele>93</ele>
        <time>2025-03-07T20:18:25Z</time>
      </trkpt>
      <trkpt lat="47.84047" lon="3.57562">
        <ele>93</ele>
        <time>2025-03-07T20:18:27Z</time>
      </trkpt>
      <trkpt lat="47.84045" lon="3.57559">
        <ele>93</ele>
        <time>2025-03-07T20:18:39Z</time>
      </trkpt>
      <trkpt lat="47.84015" lon="3.57525">
        <ele>93</ele>
        <time>2025-03-07T20:18:51Z</time>
      </trkpt>
      <trkpt lat="47.8399" lon="3.57497">
        <ele>93</ele>
        <time>2025-03-07T20:19:07Z</time>
      </trkpt>
      <trkpt lat="47.83983" lon="3.57489">
        <ele>93</ele>
        <time>2025-03-07T20:19:11Z</time>
      </trkpt>
      <trkpt lat="47.8396" lon="3.57467">
        <ele>93</ele>
        <time>2025-03-07T20:19:13Z</time>
      </trkpt>
      <trkpt lat="47.83939" lon="3.5745">
        <ele>93</ele>
        <time>2025-03-07T20:19:24Z</time>
      </trkpt>
      <trkpt lat="47.83919" lon="3.57437">
        <ele>93</ele>
        <time>2025-03-07T20:19:38Z</time>
      </trkpt>
      <trkpt lat="47.83896" lon="3.57425">
        <ele>93</ele>
        <time>2025-03-07T20:19:41Z</time>
      </trkpt>
      <trkpt lat="47.8387" lon="3.57415">
        <ele>93</ele>
        <time>2025-03-07T20:19:50Z</time>
      </trkpt>
      <trkpt lat="47.83843" lon="3.57405">
        <ele>93</ele>
        <time>2025-03-07T20:20:07Z</time>
      </trkpt>
      <trkpt lat="47.83818" lon="3.57397">
        <ele>93</ele>
        <time>2025-03-07T20:20:19Z</time>
      </trkpt>
      <trkpt lat="47.83794" lon="3.57389">
        <ele>93</ele>
        <time>2025-03-07T20:20:38Z</time>
      </trkpt>
      <trkpt lat="47.83769" lon="3.57381">
        <ele>92.9</ele>
        <time>2025-03-07T20:20:57Z</time>
      </trkpt>
      <trkpt lat="47.83747" lon="3.57375">
        <ele>93</ele>
        <time>2025-03-07T20:21:11Z</time>
      </trkpt>
      <trkpt lat="47.83725" lon="3.57369">
        <ele>93.2</ele>
        <time>2025-03-07T20:21:22Z</time>
      </trkpt>
      <trkpt lat="47.83719" lon="3.57367">
        <ele>93.2</ele>
        <time>2025-03-07T20:21:32Z</time>
      </trkpt>
      <trkpt lat="47.83672" lon="3.57352">
        <ele>93.5</ele>
        <time>2025-03-07T20:21:43Z</time>
      </trkpt>
      <trkpt lat="47.83649" lon="3.57347">
        <ele>93.1</ele>
        <time>2025-03-07T20:21:55Z</time>
      </trkpt>
      <trkpt lat="47.83621" lon="3.5734">
        <ele>93</ele>
        <time>2025-03-07T20:22:11Z</time>
      </trkpt>
      <trkpt lat="47.83589" lon="3.57332">
        <ele>93</ele>
        <time>2025-03-07T20:22:24Z</time>
      </trkpt>
      <trkpt lat="47.83558" lon="3.57324">
        <ele>93.6</ele>
        <time>2025-03-07T20:22:28Z</time>
      </trkpt>
      <trkpt lat="47.83523" lon="3.57315">
        <ele>93.3</ele>
        <time>2025-03-07T20:22:40Z</time>
      </trkpt>
      <trkpt lat="47.83482" lon="3.57304">
        <ele>93.6</ele>
        <time>2025-03-07T20:22:46Z</time>
      </trkpt>
      <trkpt lat="47.83446" lon="3.57292">
        <ele>93.5</ele>
        <time>2025-03-07T20:22:52Z</time>
      </trkpt>
      <trkpt lat="47.83417" lon="3.57281">
        <ele>94</ele>
        <time>2025-03-07T20:22:59Z</time>
      </trkpt>
      <trkpt lat="47.83386" lon="3.5727">
        <ele>93.7</ele>
        <time>2025-03-07T20:23:10Z</time>
      </trkpt>
      <trkpt lat="47.83361" lon="3.57261">
        <ele>93.4</ele>
        <time>2025-03-07T20:23:26Z</time>
      </trkpt>
      <trkpt lat="47.83313" lon="3.57244">
        <ele>93.8</ele>
        <time>2025-03-07T20:23:31Z</time>
      </trkpt>
      <trkpt lat="47.83287" lon="3.57235">
        <ele>93.8</ele>
        <time>2025-03-07T20:23:42Z</time>
      </trkpt>
      <trkpt lat="47.83231" lon="3.57216">
        <ele>94</ele>
        <time>2025-03-07T20:24:02Z</time>
      </trkpt>
      <trkpt lat="47.83186" lon="3.57204">
        <ele>94</ele>
        <time>2025-03-07T20:24:08Z</time>
      </trkpt>
      <trkpt lat="47.83146" lon="3.57193">
        <ele>94</ele>
        <time>2025-03-07T20:24:18Z</time>
      </trkpt>
      <trkpt lat="47.83126" lon="3.57189">
        <ele>93.8</ele>
        <time>2025-03-07T20:24:38Z</time>
      </trkpt>
      <trkpt lat="47.831" lon="3.57184">
        <ele>93.6</ele>
        <time>2025-03-07T20:24:48Z</time>
      </trkpt>
      <trkpt lat="47.83093" lon="3.57184">
        <ele>93.6</ele>
        <time>2025-03-07T20:24:52Z</time>
      </trkpt>
      <trkpt lat="47.8308" lon="3.57183">
        <ele>93.6</ele>
        <time>2025-03-07T20:25:12Z</time>
      </trkpt>
      <trkpt lat="47.8305" lon="3.57188">
        <ele>93.7</ele>
        <time>2025-03-07T20:25:20Z</time>
      </trkpt>
      <trkpt lat="47.8303" lon="3.57189">
        <ele>93.6</ele>
        <time>2025-03-07T20:25:38Z</time>
      </trkpt>
      <trkpt lat="47.83012" lon="3.57192">
        <ele>93.8</ele>
        <time>2025-03-07T20:25:52Z</time>
      </trkpt>
      <trkpt lat="47.83013" lon="3.5724">
        <ele>94.8</ele>
        <time>2025-03-07T20:26:11Z</time>
      </trkpt>
      <trkpt lat="47.83014" lon="3.57287">
        <ele>95</ele>
        <time>2025-03-07T20:26:28Z</time>
      </trkpt>
      <trkpt lat="47.83014" lon="3.57303">
        <ele>95</ele>
        <time>2025-03-07T20:26:39Z</time>
      </trkpt>
      <trkpt lat="47.83011" lon="3.57304">
        <ele>95</ele>
        <time>2025-03-07T20:26:53Z</time>
      </trkpt>
      <trkpt lat="47.83004" lon="3.57314">
        <ele>95</ele>
        <time>2025-03-07T20:27:10Z</time>
      </trkpt>
      <trkpt lat="47.82993" lon="3.57322">
        <ele>95</ele>
        <time>2025-03-07T20:27:12Z</time>
      </trkpt>
      <trkpt lat="47.82974" lon="3.57327">
        <ele>95</ele>
        <time>2025-03-07T20:27:19Z</time>
      </trkpt>
      <trkpt lat="47.82951" lon="3.57333">
        <ele>95</ele>
        <time>2025-03-07T20:27:31Z</time>
      </trkpt>
      <trkpt lat="47.82944" lon="3.57334">
        <ele>95</ele>
        <time>2025-03-07T20:27:39Z</time>
      </trkpt>
      <trkpt lat="47.82929" lon="3.57338">
        <ele>95</ele>
        <time>2025-03-07T20:27:42Z</time>
      </trkpt>
      <trkpt lat="47.82918" lon="3.57341">
        <ele>95</ele>
        <time>2025-03-07T20:28:01Z</time>
      </trkpt>
      <trkpt lat="47.82909" lon="3.57343">
        <ele>95</ele>
        <time>2025-03-07T20:28:16Z</time>
      </trkpt>
      <trkpt lat="47.82883" lon="3.57349">
        <ele>95</ele>
        <time>2025-03-07T20:28:24Z</time>
      </trkpt>
      <trkpt lat="47.82874" lon="3.57352">
        <ele>95</ele>
        <time>2025-03-07T20:28:33Z</time>
      </trkpt>
      <trkpt lat="47.82853" lon="3.57357">
        <ele>95</ele>
        <time>2025-03-07T20:28:41Z</time>
      </trkpt>
      <trkpt lat="47.82825" lon="3.57364">
        <ele>95</ele>
        <time>2025-03-07T20:28:56Z</time>
      </trkpt>
      <trkpt lat="47.82806" lon="3.57369">
        <ele>95</ele>
        <time>2025-03-07T20:29:15Z</time>
      </trkpt>
      <trkpt lat="47.82783" lon="3.57375">
        <ele>95</ele>
        <time>2025-03-07T20:29:25Z</time>
      </trkpt>
      <trkpt lat="47.82764" lon="3.57379">
        <ele>95</ele>
        <time>2025-03-07T20:29:35Z</time>
      </trkpt>
      <trkpt lat="47.82738" lon="3.57385">
        <ele>95</ele>
        <time>2025-03-07T20:29:45Z</time>
      </trkpt>
      <trkpt lat="47.82705" lon="3.57394">
        <ele>95.1</ele>
        <time>2025-03-07T20:30:03Z</time>
      </trkpt>
      <trkpt lat="47.82675" lon="3.57402">
        <ele>95.1</ele>
        <time>2025-03-07T20:30:22Z</time>
      </trkpt>
      <trkpt lat="47.82644" lon="3.57409">
        <ele>95</ele>
        <time>2025-03-07T20:30:34Z</time>
      </trkpt>
      <trkpt lat="47.82615" lon="3.57416">
        <ele>95.9</ele>
        <time>2025-03-07T20:30:53Z</time>
      </trkpt>
      <trkpt lat="47.82575" lon="3.57427">
        <ele>96</ele>
        <time>2025-03-07T20:31:06Z</time>
      </trkpt>
      <trkpt lat="47.82528" lon="3.57438">
        <ele>96</ele>
        <time>2025-03-07T20:31:21Z</time>
      </trkpt>
      <trkpt lat="47.8247" lon="3.57453">
        <ele>96</ele>
        <time>2025-03-07T20:31:36Z</time>
      </trkpt>
      <trkpt lat="47.82429" lon="3.57464">
        <ele>96</ele>
        <time>2025-03-07T20:31:52Z</time>
      </trkpt>
      <trkpt lat="47.8241" lon="3.57469">
        <ele>96</ele>
        <time>2025-03-07T20:31:57Z</time>
      </trkpt>
      <trkpt lat="47.82385" lon="3.57474">
        <ele>95.9</ele>
        <time>2025-03-07T20:32:00Z</time>
      </trkpt>
      <trkpt lat="47.82362" lon="3.57477">
        <ele>95.2</ele>
        <time>2025-03-07T20:32:06Z</time>
      </trkpt>
      <trkpt lat="47.82334" lon="3.57482">
        <ele>95</ele>
        <time>2025-03-07T20:32:19Z</time>
      </trkpt>
      <trkpt lat="47.82289" lon="3.57491">
        <ele>95</ele>
        <time>2025-03-07T20:32:28Z</time>
      </trkpt>
      <trkpt lat="47.82289" lon="3.57527">
        <ele>95.4</ele>
        <time>2025-03-07T20:32:47Z</time>
      </trkpt>
      <trkpt lat="47.82292" lon="3.57578">
        <ele>96</ele>
        <time>2025-03-07T20:32:58Z</time>
      </trkpt>
      <trkpt lat="47.82294" lon="3.57612">
        <ele>96</ele>
        <time>2025-03-07T20:33:00Z</time>
      </trkpt>
      <trkpt lat="47.82299" lon="3.57679">
        <ele>96</ele>
        <time>2025-03-07T20:33:02Z</time>
      </trkpt>
      <trkpt lat="47.82303" lon="3.57742">
        <ele>96</ele>
        <time>2025-03-07T20:33:12Z</time>
      </trkpt>
      <trkpt lat="47.82306" lon="3.57791">
        <ele>96</ele>
        <time>2025-03-07T20:33:25Z</time>
      </trkpt>
      <trkpt lat="47.82309" lon="3.57856">
        <ele>96</ele>
        <time>2025-03-07T20:33:37Z</time>
      </trkpt>
      <trkpt lat="47.82312" lon="3.57883">
        <ele>96</ele>
        <time>2025-03-07T20:33:39Z</time>
      </trkpt>
      <trkpt lat="47.82325" lon="3.57882">
        <ele>96</ele>
        <time>2025-03-07T20:33:51Z</time>
      </trkpt>
      <trkpt lat="47.82355" lon="3.57878">
        <ele>96</ele>
        <time>2025-03-07T20:33:58Z</time>
      </trkpt>
      <trkpt lat="47.82384" lon="3.57875">
        <ele>96</ele>
        <time>2025-03-07T20:34:01Z</time>
      </trkpt>
      <trkpt lat="47.82411" lon="3.57871">
        <ele>96</ele>
        <time>2025-03-07T20:34:07Z</time>
      </trkpt>
      <trkpt lat="47.82423" lon="3.57869">
        <ele>96</ele>
        <time>2025-03-07T20:34:20Z</time>
      </trkpt>
      <trkpt lat="47.82441" lon="3.57866">
        <ele>96</ele>
        <time>2025-03-07T20:34:30Z</time>
      </trkpt>
      <trkpt lat="47.82462" lon="3.57863">
        <ele>96</ele>
        <time>2025-03-07T20:34:49Z</time>
      </trkpt>
      <trkpt lat="47.82476" lon="3.57862">
        <ele>96</ele>
        <time>2025-03-07T20:34:54Z</time>
      </trkpt>
      <trkpt lat="47.82494" lon="3.57859">
        <ele>96</ele>
        <time>2025-03-07T20:35:01Z</time>
      </trkpt>
      <trkpt lat="47.82518" lon="3.57856">
        <ele>96</ele>
        <time>2025-03-07T20:35:08Z</time>
      </trkpt>
      <trkpt lat="47.82537" lon="3.57853">
        <ele>96</ele>
        <time>2025-03-07T20:35:16Z</time>
      </trkpt>
      <trkpt lat="47.82558" lon="3.5785">
        <ele>96</ele>
        <time>2025-03-07T20:35:29Z</time>
      </trkpt>
      <trkpt lat="47.82586" lon="3.57846">
        <ele>96</ele>
        <time>2025-03-07T20:35:36Z</time>
      </trkpt>
      <trkpt lat="47.82604" lon="3.57844">
        <ele>96</ele>
        <time>2025-03-07T20:35:55Z</time>
      </trkpt>
      <trkpt lat="47.82634" lon="3.5784">
        <ele>96</ele>
        <time>2025-03-07T20:36:02Z</time>
      </trkpt>
      <trkpt lat="47.82662" lon="3.57836">
        <ele>96</ele>
        <time>2025-03-07T20:36:21Z</time>
      </trkpt>
      <trkpt lat="47.82691" lon="3.57832">
        <ele>95.2</ele>
        <time>2025-03-07T20:36:31Z</time>
      </trkpt>
      <trkpt lat="47.82723" lon="3.57828">
        <ele>95.2</ele>
        <time>2025-03-07T20:36:35Z</time>
      </trkpt>
      <trkpt lat="47.82757" lon="3.57823">
        <ele>95.5</ele>
        <time>2025-03-07T20:36:49Z</time>
      </trkpt>
      <trkpt lat="47.82773" lon="3.57821">
        <ele>95.9</ele>
        <time>2025-03-07T20:36:55Z</time>
      </trkpt>
      <trkpt lat="47.82802" lon="3.57817">
        <ele>95.1</ele>
        <time>2025-03-07T20:37:01Z</time>
      </trkpt>
      <trkpt lat="47.82817" lon="3.57815">
        <ele>95</ele>
        <time>2025-03-07T20:37:10Z</time>
      </trkpt>
      <trkpt lat="47.82839" lon="3.57812">
        <ele>95</ele>
        <time>2025-03-07T20:37:18Z</time>
      </trkpt>
      <trkpt lat="47.82859" lon="3.57809">
        <ele>95</ele>
        <time>2025-03-07T20:37:22Z</time>
      </trkpt>
      <trkpt lat="47.82874" lon="3.57807">
        <ele>95</ele>
        <time>2025-03-07T20:37:42Z</time>
      </trkpt>
      <trkpt lat="47.82911" lon="3.57801">
        <ele>95</ele>
        <time>2025-03-07T20:37:49Z</time>
      </trkpt>
      <trkpt lat="47.82942" lon="3.57797">
        <ele>95</ele>
        <time>2025-03-07T20:38:02Z</time>
      </trkpt>
      <trkpt lat="47.82976" lon="3.57792">
        <ele>95.5</ele>
        <time>2025-03-07T20:38:20Z</time>
      </trkpt>
      <trkpt lat="47.82997" lon="3.57789">
        <ele>95.4</ele>
        <time>2025-03-07T20:38:25Z</time>
      </trkpt>
      <trkpt lat="47.83009" lon="3.57787">
        <ele>95.3</ele>
        <time>2025-03-07T20:38:38Z</time>
      </trkpt>
      <trkpt lat="47.83021" lon="3.57787">
        <ele>95.3</ele>
        <time>2025-03-07T20:38:47Z</time>
      </trkpt>
      <trkpt lat="47.83027" lon="3.57789">
        <ele>95.4</ele>
        <time>2025-03-07T20:39:06Z</time>
      </trkpt>
      <trkpt lat="47.8303" lon="3.57851">
        <ele>96</ele>
        <time>2025-03-07T20:39:16Z</time>
      </trkpt>
      <trkpt lat="47.8303" lon="3.57878">
        <ele>96</ele>
        <time>2025-03-07T20:39:25Z</time>
      </trkpt>
      <trkpt lat="47.83031" lon="3.57919">
        <ele>96</ele>
        <time>2025-03-07T20:39:38Z</time>
      </trkpt>
      <trkpt lat="47.83033" lon="3.57981">
        <ele>96</ele>
        <time>2025-03-07T20:39:40Z</time>
      </trkpt>
      <trkpt lat="47.83058" lon="3.5798">
        <ele>96</ele>
        <time>2025-03-07T20:39:42Z</time>
      </trkpt>
      <trkpt lat="47.83097" lon="3.57975">
        <ele>96.1</ele>
        <time>2025-03-07T20:39:47Z</time>
      </trkpt>
      <trkpt lat="47.83139" lon="3.57971">
        <ele>96</ele>
        <time>2025-03-07T20:40:02Z</time>
      </trkpt>
      <trkpt lat="47.83176" lon="3.57967">
        <ele>96</ele>
        <time>2025-03-07T20:40:16Z</time>
      </trkpt>
      <trkpt lat="47.8319" lon="3.57966">
        <ele>96</ele>
        <time>2025-03-07T20:40:21Z</time>
      </trkpt>
      <trkpt lat="47.83199" lon="3.57964">
        <ele>96</ele>
        <time>2025-03-07T20:40:33Z</time>
      </trkpt>
      <trkpt lat="47.83204" lon="3.57972">
        <ele>96</ele>
        <time>2025-03-07T20:40:50Z</time>
      </trkpt>
      <trkpt lat="47.83219" lon="3.58009">
        <ele>96</ele>
        <time>2025-03-07T20:40:55Z</time>
      </trkpt>
      <trkpt lat="47.83223" lon="3.58018">
        <ele>96</ele>
        <time>2025-03-07T20:41:09Z</time>
      </trkpt>
      <trkpt lat="47.8323" lon="3.58016">
        <ele>96</ele>
        <time>2025-03-07T20:41:16Z</time>
      </trkpt>
      <trkpt lat="47.83237" lon="3.58018">
        <ele>96</ele>
        <time>2025-03-07T20:41:21Z</time>
      </trkpt>
      <trkpt lat="47.83242" lon="3.58024">
        <ele>96</ele>
        <time>2025-03-07T20:41:40Z</time>
      </trkpt>
      <trkpt lat="47.83248" lon="3.58018">
        <ele>96</ele>
        <time>2025-03-07T20:41:52Z</time>
      </trkpt>
      <trkpt lat="47.83257" lon="3.58013">
        <ele>96</ele>
        <time>2025-03-07T20:41:56Z</time>
      </trkpt>
      <trkpt lat="47.83277" lon="3.58012">
        <ele>96</ele>
        <time>2025-03-07T20:42:16Z</time>
      </trkpt>
      <trkpt lat="47.8331" lon="3.58012">
        <ele>95.5</ele>
        <time>2025-03-07T20:42:27Z</time>
      </trkpt>
      <trkpt lat="47.83316" lon="3.58012">
        <ele>95.5</ele>
        <time>2025-03-07T20:42:32Z</time>
      </trkpt>
      <trkpt lat="47.83344" lon="3.58012">
        <ele>95.8</ele>
        <time>2025-03-07T20:42:49Z</time>
      </trkpt>
      <trkpt lat="47.83378" lon="3.58013">
        <ele>95.7</ele>
        <time>2025-03-07T20:42:51Z</time>
      </trkpt>
      <trkpt lat="47.83409" lon="3.58014">
        <ele>96.2</ele>
        <time>2025-03-07T20:43:10Z</time>
      </trkpt>
      <trkpt lat="47.83432" lon="3.58013">
        <ele>96.8</ele>
        <time>2025-03-07T20:43:24Z</time>
      </trkpt>
      <trkpt lat="47.83469" lon="3.58014">
        <ele>95.7</ele>
        <time>2025-03-07T20:43:29Z</time>
      </trkpt>
      <trkpt lat="47.83477" lon="3.58013">
        <ele>95.5</ele>
        <time>2025-03-07T20:43:35Z</time>
      </trkpt>
      <trkpt lat="47.83497" lon="3.58009">
        <ele>95.9</ele>
        <time>2025-03-07T20:43:53Z</time>
      </trkpt>
      <trkpt lat="47.83516" lon="3.58006">
        <ele>96</ele>
        <time>2025-03-07T20:43:57Z</time>
      </trkpt>
      <trkpt lat="47.83551" lon="3.57999">
        <ele>96</ele>
        <time>2025-03-07T20:44:05Z</time>
      </trkpt>
      <trkpt lat="47.83574" lon="3.57994">
        <ele>96.7</ele>
        <time>2025-03-07T20:44:12Z</time>
      </trkpt>
      <trkpt lat="47.83591" lon="3.57991">
        <ele>97</ele>
        <time>2025-03-07T20:44:22Z</time>
      </trkpt>
      <trkpt lat="47.83614" lon="3.57986">
        <ele>97</ele>
        <time>2025-03-07T20:44:29Z</time>
      </trkpt>
      <trkpt lat="47.83637" lon="3.57981">
        <ele>96.4</ele>
        <time>2025-03-07T20:44:39Z</time>
      </trkpt>
      <trkpt lat="47.83648" lon="3.5798">
        <ele>96.2</ele>
        <time>2025-03-07T20:44:52Z</time>
      </trkpt>
      <trkpt lat="47.83655" lon="3.58024">
        <ele>96.4</ele>
        <time>2025-03-07T20:44:58Z</time>
      </trkpt>
      <trkpt lat="47.83655" lon="3.58039">
        <ele>96.4</ele>
        <time>2025-03-07T20:45:15Z</time>
      </trkpt>
      <trkpt lat="47.83665" lon="3.58105">
        <ele>96</ele>
        <time>2025-03-07T20:45:27Z</time>
      </trkpt>
      <trkpt lat="47.83663" lon="3.58109">
        <ele>96</ele>
        <time>2025-03-07T20:45:44Z</time>
      </trkpt>
      <trkpt lat="47.83659" lon="3.58118">
        <ele>96.2</ele>
        <time>2025-03-07T20:45:48Z</time>
      </trkpt>
      <trkpt lat="47.83658" lon="3.58125">
        <ele>96.3</ele>
        <time>2025-03-07T20:45:55Z</time>
      </trkpt>
      <trkpt lat="47.83659" lon="3.58133">
        <ele>96.6</ele>
        <time>2025-03-07T20:46:03Z</time>
      </trkpt>
      <trkpt lat="47.83661" lon="3.58139">
        <ele>96.8</ele>
        <time>2025-03-07T20:46:19Z</time>
      </trkpt>
      <trkpt lat="47.83664" lon="3.58143">
        <ele>96.8</ele>
        <time>2025-03-07T20:46:37Z</time>
      </trkpt>
      <trkpt lat="47.83669" lon="3.58146">
        <ele>96.7</ele>
        <time>2025-03-07T20:46:50Z</time>
      </trkpt>
      <trkpt lat="47.83674" lon="3.58147">
        <ele>96.5</ele>
        <time>2025-03-07T20:47:08Z</time>
      </trkpt>
      <trkpt lat="47.83681" lon="3.58144">
        <ele>96.4</ele>
        <time>2025-03-07T20:47:21Z</time>
      </trkpt>
      <trkpt lat="47.83685" lon="3.58139">
        <ele>96.4</ele>
        <time>2025-03-07T20:47:29Z</time>
      </trkpt>
      <trkpt lat="47.83686" lon="3.58136">
        <ele>96.3</ele>
        <time>2025-03-07T20:47:36Z</time>
      </trkpt>
      <trkpt lat="47.8371" lon="3.58131">
        <ele>96</ele>
        <time>2025-03-07T20:47:49Z</time>
      </trkpt>
      <trkpt lat="47.83727" lon="3.58127">
        <ele>96</ele>
        <time>2025-03-07T20:48:07Z</time>
      </trkpt>
      <trkpt lat="47.83744" lon="3.58123">
        <ele>96</ele>
        <time>2025-03-07T20:48:26Z</time>
      </trkpt>
      <trkpt lat="47.83761" lon="3.58119">
        <ele>96</ele>
        <time>2025-03-07T20:48:39Z</time>
      </trkpt>
      <trkpt lat="47.83783" lon="3.58116">
        <ele>96</ele>
        <time>2025-03-07T20:48:50Z</time>
      </trkpt>
      <trkpt lat="47.83802" lon="3.58113">
        <ele>96</ele>
        <time>2025-03-07T20:49:04Z</time>
      </trkpt>
      <trkpt lat="47.8383" lon="3.58107">
        <ele>96</ele>
        <time>2025-03-07T20:49:09Z</time>
      </trkpt>
      <trkpt lat="47.83846" lon="3.58103">
        <ele>96</ele>
        <time>2025-03-07T20:49:16Z</time>
      </trkpt>
      <trkpt lat="47.83874" lon="3.58097">
        <ele>95.8</ele>
        <time>2025-03-07T20:49:29Z</time>
      </trkpt>
      <trkpt lat="47.83891" lon="3.58094">
        <ele>95.6</ele>
        <time>2025-03-07T20:49:35Z</time>
      </trkpt>
      <trkpt lat="47.83903" lon="3.58092">
        <ele>95.7</ele>
        <time>2025-03-07T20:49:48Z</time>
      </trkpt>
      <trkpt lat="47.83932" lon="3.58086">
        <ele>95.9</ele>
        <time>2025-03-07T20:49:52Z</time>
      </trkpt>
      <trkpt lat="47.83971" lon="3.58078">
        <ele>95</ele>
        <time>2025-03-07T20:49:54Z</time>
      </trkpt>
      <trkpt lat="47.83998" lon="3.58073">
        <ele>95</ele>
        <time>2025-03-07T20:50:10Z</time>
      </trkpt>
      <trkpt lat="47.84025" lon="3.58067">
        <ele>95.9</ele>
        <time>2025-03-07T20:50:21Z</time>
      </trkpt>
      <trkpt lat="47.84058" lon="3.58061">
        <ele>96</ele>
        <time>2025-03-07T20:50:30Z</time>
      </trkpt>
      <trkpt lat="47.84065" lon="3.5806">
        <ele>96</ele>
        <time>2025-03-07T20:50:39Z</time>
      </trkpt>
      <trkpt lat="47.84086" lon="3.58056">
        <ele>96</ele>
        <time>2025-03-07T20:50:41Z</time>
      </trkpt>
      <trkpt lat="47.84111" lon="3.5805">
        <ele>95.8</ele>
        <time>2025-03-07T20:50:44Z</time>
      </trkpt>
      <trkpt lat="47.84141" lon="3.58044">
        <ele>95</ele>
        <time>2025-03-07T20:50:54Z</time>
      </trkpt>
      <trkpt lat="47.84157" lon="3.58041">
        <ele>95</ele>
        <time>2025-03-07T20:51:06Z</time>
      </trkpt>
      <trkpt lat="47.84172" lon="3.58034">
        <ele>95.1</ele>
        <time>2025-03-07T20:51:23Z</time>
      </trkpt>
      <trkpt lat="47.84176" lon="3.58032">
        <ele>95.3</ele>
        <time>2025-03-07T20:51:28Z</time>
      </trkpt>
      <trkpt lat="47.84186" lon="3.58031">
        <ele>95.6</ele>
        <time>2025-03-07T20:51:38Z</time>
      </trkpt>
      <trkpt lat="47.84186" lon="3.58038">
        <ele>95.4</ele>
        <time>2025-03-07T20:51:49Z</time>
      </trkpt>
      <trkpt lat="47.84185" lon="3.58045">
        <ele>95.3</ele>
        <time>2025-03-07T20:51:58Z</time>
      </trkpt>
      <trkpt lat="47.8418" lon="3.58069">
        <ele>95</ele>
        <time>2025-03-07T20:52:16Z</time>
      </trkpt>
      <trkpt lat="47.84178" lon="3.5808">
        <ele>95</ele>
        <time>2025-03-07T20:52:35Z</time>
      </trkpt>
      <trkpt lat="47.84176" lon="3.58109">
        <ele>95.3</ele>
        <time>2025-03-07T20:52:49Z</time>
      </trkpt>
      <trkpt lat="47.84175" lon="3.5813">
        <ele>95.8</ele>
        <time>2025-03-07T20:53:07Z</time>
      </trkpt>
      <trkpt lat="47.84177" lon="3.58182">
        <ele>96</ele>
        <time>2025-03-07T20:53:19Z</time>
      </trkpt>
      <trkpt lat="47.84177" lon="3.58205">
        <ele>95.5</ele>
        <time>2025-03-07T20:53:36Z</time>
      </trkpt>
      <trkpt lat="47.84178" lon="3.58217">
        <ele>95.6</ele>
        <time>2025-03-07T20:53:52Z</time>
      </trkpt>
      <trkpt lat="47.84179" lon="3.58224">
        <ele>95.6</ele>
        <time>2025-03-07T20:53:58Z</time>
      </trkpt>
      <trkpt lat="47.84178" lon="3.58235">
        <ele>95.8</ele>
        <time>2025-03-07T20:54:08Z</time>
      </trkpt>
      <trkpt lat="47.84177" lon="3.58249">
        <ele>96</ele>
        <time>2025-03-07T20:54:24Z</time>
      </trkpt>
      <trkpt lat="47.84179" lon="3.58296">
        <ele>96.5</ele>
        <time>2025-03-07T20:54:32Z</time>
      </trkpt>
      <trkpt lat="47.84177" lon="3.58373">
        <ele>97.4</ele>
        <time>2025-03-07T20:54:36Z</time>
      </trkpt>
      <trkpt lat="47.84177" lon="3.58392">
        <ele>98</ele>
        <time>2025-03-07T20:54:39Z</time>
      </trkpt>
      <trkpt lat="47.84178" lon="3.58405">
        <ele>98</ele>
        <time>2025-03-07T20:54:57Z</time>
      </trkpt>
      <trkpt lat="47.84199" lon="3.58399">
        <ele>98</ele>
        <time>2025-03-07T20:55:17Z</time>
      </trkpt>
      <trkpt lat="47.8421" lon="3.58395">
        <ele>98</ele>
        <time>2025-03-07T20:55:29Z</time>
      </trkpt>
      <trkpt lat="47.84218" lon="3.58392">
        <ele>98</ele>
        <time>2025-03-07T20:55:45Z</time>
      </trkpt>
      <trkpt lat="47.84242" lon="3.58379">
        <ele>97.9</ele>
        <time>2025-03-07T20:56:02Z</time>
      </trkpt>
      <trkpt lat="47.84263" lon="3.58369">
        <ele>98</ele>
        <time>2025-03-07T20:56:14Z</time>
      </trkpt>
      <trkpt lat="47.84279" lon="3.5836">
        <ele>98</ele>
        <time>2025-03-07T20:56:25Z</time>
      </trkpt>
      <trkpt lat="47.84306" lon="3.5834">
        <ele>98</ele>
        <time>2025-03-07T20:56:31Z</time>
      </trkpt>
      <trkpt lat="47.84326" lon="3.58325">
        <ele>97.9</ele>
        <time>2025-03-07T20:56:42Z</time>
      </trkpt>
      <trkpt lat="47.84343" lon="3.58312">
        <ele>98.1</ele>
        <time>2025-03-07T20:56:48Z</time>
      </trkpt>
      <trkpt lat="47.84369" lon="3.58298">
        <ele>98</ele>
        <time>2025-03-07T20:56:58Z</time>
      </trkpt>
      <trkpt lat="47.84371" lon="3.58297">
        <ele>98</ele>
        <time>2025-03-07T20:57:02Z</time>
      </trkpt>
      <trkpt lat="47.84392" lon="3.58286">
        <ele>98.4</ele>
        <time>2025-03-07T20:57:05Z</time>
      </trkpt>
      <trkpt lat="47.84416" lon="3.58277">
        <ele>99</ele>
        <time>2025-03-07T20:57:12Z</time>
      </trkpt>
      <trkpt lat="47.84428" lon="3.58272">
        <ele>98.8</ele>
        <time>2025-03-07T20:57:32Z</time>
      </trkpt>
      <trkpt lat="47.84431" lon="3.5827">
        <ele>98.7</ele>
        <time>2025-03-07T20:57:49Z</time>
      </trkpt>
      <trkpt lat="47.84434" lon="3.58267">
        <ele>98.6</ele>
        <time>2025-03-07T20:58:08Z</time>
      </trkpt>
      <trkpt lat="47.84437" lon="3.58268">
        <ele>98.6</ele>
        <time>2025-03-07T20:58:26Z</time>
      </trkpt>
      <trkpt lat="47.8444" lon="3.58267">
        <ele>98.6</ele>
        <time>2025-03-07T20:58:34Z</time>
      </trkpt>
      <trkpt lat="47.84444" lon="3.58267">
        <ele>98.6</ele>
        <time>2025-03-07T20:58:44Z</time>
      </trkpt>
      <trkpt lat="47.84472" lon="3.58259">
        <ele>99</ele>
        <time>2025-03-07T20:58:54Z</time>
      </trkpt>
      <trkpt lat="47.84482" lon="3.58255">
        <ele>99.1</ele>
        <time>2025-03-07T20:59:08Z</time>
      </trkpt>
      <trkpt lat="47.84491" lon="3.58251">
        <ele>99</ele>
        <time>2025-03-07T20:59:26Z</time>
      </trkpt>
      <trkpt lat="47.84504" lon="3.58247">
        <ele>98.9</ele>
        <time>2025-03-07T20:59:31Z</time>
      </trkpt>
      <trkpt lat="47.84507" lon="3.58247">
        <ele>98.9</ele>
        <time>2025-03-07T20:59:44Z</time>
      </trkpt>
      <trkpt lat="47.84533" lon="3.5824">
        <ele>99.1</ele>
        <time>2025-03-07T20:59:52Z</time>
      </trkpt>
      <trkpt lat="47.84536" lon="3.58239">
        <ele>99.2</ele>
        <time>2025-03-07T20:59:55Z</time>
      </trkpt>
      <trkpt lat="47.84562" lon="3.58227">
        <ele>99.4</ele>
        <time>2025-03-07T21:00:04Z</time>
      </trkpt>
      <trkpt lat="47.8458" lon="3.58217">
        <ele>99.7</ele>
        <time>2025-03-07T21:00:23Z</time>
      </trkpt>
      <trkpt lat="47.84596" lon="3.58207">
        <ele>99.4</ele>
        <time>2025-03-07T21:00:37Z</time>
      </trkpt>
      <trkpt lat="47.84598" lon="3.58194">
        <ele>99</ele>
        <time>2025-03-07T21:00:57Z</time>
      </trkpt>
      <trkpt lat="47.84605" lon="3.5819">
        <ele>99.1</ele>
        <time>2025-03-07T21:01:09Z</time>
      </trkpt>
      <trkpt lat="47.84611" lon="3.58189">
        <ele>99.2</ele>
        <time>2025-03-07T21:01:15Z</time>
      </trkpt>
      <trkpt lat="47.8462" lon="3.58185">
        <ele>99.1</ele>
        <time>2025-03-07T21:01:19Z</time>
      </trkpt>
      <trkpt lat="47.84635" lon="3.58178">
        <ele>99.2</ele>
        <time>2025-03-07T21:01:35Z</time>
      </trkpt>
      <trkpt lat="47.84651" lon="3.58172">
        <ele>99.4</ele>
        <time>2025-03-07T21:01:39Z</time>
      </trkpt>
      <trkpt lat="47.84671" lon="3.58166">
        <ele>99</ele>
        <time>2025-03-07T21:01:47Z</time>
      </trkpt>
      <trkpt lat="47.84685" lon="3.58162">
        <ele>99.1</ele>
        <time>2025-03-07T21:01:58Z</time>
      </trkpt>
      <trkpt lat="47.84711" lon="3.58153">
        <ele>99.9</ele>
        <time>2025-03-07T21:02:00Z</time>
      </trkpt>
      <trkpt lat="47.84725" lon="3.58149">
        <ele>100.4</ele>
        <time>2025-03-07T21:02:05Z</time>
      </trkpt>
      <trkpt lat="47.84742" lon="3.58143">
        <ele>100.9</ele>
        <time>2025-03-07T21:02:17Z</time>
      </trkpt>
      <trkpt lat="47.84765" lon="3.58138">
        <ele>101.5</ele>
        <time>2025-03-07T21:02:25Z</time>
      </trkpt>
      <trkpt lat="47.84787" lon="3.58134">
        <ele>102.1</ele>
        <time>2025-03-07T21:02:28Z</time>
      </trkpt>
      <trkpt lat="47.84807" lon="3.58131">
        <ele>102.8</ele>
        <time>2025-03-07T21:02:40Z</time>
      </trkpt>
      <trkpt lat="47.84833" lon="3.58126">
        <ele>104</ele>
        <time>2025-03-07T21:02:42Z</time>
      </trkpt>
      <trkpt lat="47.84845" lon="3.58123">
        <ele>104.4</ele>
        <time>2025-03-07T21:02:50Z</time>
      </trkpt>
      <trkpt lat="47.84859" lon="3.58119">
        <ele>104.9</ele>
        <time>2025-03-07T21:03:07Z</time>
      </trkpt>
      <trkpt lat="47.84885" lon="3.58109">
        <ele>105</ele>
        <time>2025-03-07T21:03:19Z</time>
      </trkpt>
      <trkpt lat="47.8489" lon="3.58107">
        <ele>105</ele>
        <time>2025-03-07T21:03:31Z</time>
      </trkpt>
      <trkpt lat="47.84907" lon="3.58104">
        <ele>105.3</ele>
        <time>2025-03-07T21:03:50Z</time>
      </trkpt>
      <trkpt lat="47.84912" lon="3.581">
        <ele>105.2</ele>
        <time>2025-03-07T21:04:05Z</time>
      </trkpt>
      <trkpt lat="47.84917" lon="3.58099">
        <ele>105.1</ele>
        <time>2025-03-07T21:04:20Z</time>
      </trkpt>
      <trkpt lat="47.84929" lon="3.58097">
        <ele>105.7</ele>
        <time>2025-03-07T21:04:30Z</time>
      </trkpt>
      <trkpt lat="47.84954" lon="3.58099">
        <ele>106.7</ele>
        <time>2025-03-07T21:04:35Z</time>
      </trkpt>
      <trkpt lat="47.84987" lon="3.581">
        <ele>107.6</ele>
        <time>2025-03-07T21:04:47Z</time>
      </trkpt>
      <trkpt lat="47.84999" lon="3.581">
        <ele>108</ele>
        <time>2025-03-07T21:04:50Z</time>
      </trkpt>
      <trkpt lat="47.85004" lon="3.58097">
        <ele>107.8</ele>
        <time>2025-03-07T21:04:54Z</time>
      </trkpt>
      <trkpt lat="47.85019" lon="3.58091">
        <ele>107</ele>
        <time>2025-03-07T21:04:58Z</time>
      </trkpt>
      <trkpt lat="47.85024" lon="3.58089">
        <ele>106.6</ele>
        <time>2025-03-07T21:05:10Z</time>
      </trkpt>
      <trkpt lat="47.85028" lon="3.58089">
        <ele>106.5</ele>
        <time>2025-03-07T21:05:20Z</time>
      </trkpt>
      <trkpt lat="47.8503" lon="3.58043">
        <ele>104.6</ele>
        <time>2025-03-07T21:05:22Z</time>
      </trkpt>
      <trkpt lat="47.85029" lon="3.58028">
        <ele>104</ele>
        <time>2025-03-07T21:05:38Z</time>
      </trkpt>
      <trkpt lat="47.85034" lon="3.58026">
        <ele>103.9</ele>
        <time>2025-03-07T21:05:54Z</time>
      </trkpt>
      <trkpt lat="47.85056" lon="3.58026">
        <ele>104</ele>
        <time>2025-03-07T21:06:00Z</time>
      </trkpt>
      <trkpt lat="47.85081" lon="3.58026">
        <ele>104.8</ele>
        <time>2025-03-07T21:06:18Z</time>
      </trkpt>
      <trkpt lat="47.85114" lon="3.58026">
        <ele>104.9</ele>
        <time>2025-03-07T21:06:32Z</time>
      </trkpt>
      <trkpt lat="47.85148" lon="3.58026">
        <ele>104.8</ele>
        <time>2025-03-07T21:06:34Z</time>
      </trkpt>
      <trkpt lat="47.85155" lon="3.58026">
        <ele>104.8</ele>
        <time>2025-03-07T21:06:47Z</time>
      </trkpt>
      <trkpt lat="47.8516" lon="3.58024">
        <ele>104.7</ele>
        <time>2025-03-07T21:07:02Z</time>
      </trkpt>
      <trkpt lat="47.85179" lon="3.58024">
        <ele>104.7</ele>
        <time>2025-03-07T21:07:22Z</time>
      </trkpt>
      <trkpt lat="47.85206" lon="3.58026">
        <ele>104.9</ele>
        <time>2025-03-07T21:07:35Z</time>
      </trkpt>
      <trkpt lat="47.85215" lon="3.58027">
        <ele>105</ele>
        <time>2025-03-07T21:07:50Z</time>
      </trkpt>
      <trkpt lat="47.85241" lon="3.58031">
        <ele>105.2</ele>
        <time>2025-03-07T21:08:06Z</time>
      </trkpt>
      <trkpt lat="47.85261" lon="3.58033">
        <ele>105.4</ele>
        <time>2025-03-07T21:08:09Z</time>
      </trkpt>
      <trkpt lat="47.85287" lon="3.58035">
        <ele>105.2</ele>
        <time>2025-03-07T21:08:28Z</time>
      </trkpt>
      <trkpt lat="47.85307" lon="3.58035">
        <ele>104.5</ele>
        <time>2025-03-07T21:08:44Z</time>
      </trkpt>
      <trkpt lat="47.85338" lon="3.58035">
        <ele>103.1</ele>
        <time>2025-03-07T21:08:51Z</time>
      </trkpt>
      <trkpt lat="47.85358" lon="3.58037">
        <ele>102.4</ele>
        <time>2025-03-07T21:09:04Z</time>
      </trkpt>
      <trkpt lat="47.85376" lon="3.58039">
        <ele>101.6</ele>
        <time>2025-03-07T21:09:08Z</time>
      </trkpt>
      <trkpt lat="47.85388" lon="3.58042">
        <ele>101.1</ele>
        <time>2025-03-07T21:09:15Z</time>
      </trkpt>
      <trkpt lat="47.85388" lon="3.5803">
        <ele>101</ele>
        <time>2025-03-07T21:09:35Z</time>
      </trkpt>
      <trkpt lat="47.85386" lon="3.57988">
        <ele>100.2</ele>
        <time>2025-03-07T21:09:46Z</time>
      </trkpt>
      <trkpt lat="47.85385" lon="3.57967">
        <ele>99.1</ele>
        <time>2025-03-07T21:09:54Z</time>
      </trkpt>
      <trkpt lat="47.85385" lon="3.57953">
        <ele>99</ele>
        <time>2025-03-07T21:10:02Z</time>
      </trkpt>
      <trkpt lat="47.85385" lon="3.57944">
        <ele>99</ele>
        <time>2025-03-07T21:10:13Z</time>
      </trkpt>
      <trkpt lat="47.85387" lon="3.57942">
        <ele>98.9</ele>
        <time>2025-03-07T21:10:19Z</time>
      </trkpt>
      <trkpt lat="47.85411" lon="3.57939">
        <ele>98.8</ele>
        <time>2025-03-07T21:10:30Z</time>
      </trkpt>
      <trkpt lat="47.8543" lon="3.57936">
        <ele>98.4</ele>
        <time>2025-03-07T21:10:34Z</time>
      </trkpt>
      <trkpt lat="47.85455" lon="3.57933">
        <ele>97.8</ele>
        <time>2025-03-07T21:10:42Z</time>
      </trkpt>
      <trkpt lat="47.85455" lon="3.57877">
        <ele>96.3</ele>
        <time>2025-03-07T21:10:49Z</time>
      </trkpt>
      <trkpt lat="47.85454" lon="3.57841">
        <ele>96</ele>
        <time>2025-03-07T21:11:00Z</time>
      </trkpt>
      <trkpt lat="47.85453" lon="3.57835">
        <ele>96</ele>
        <time>2025-03-07T21:11:20Z</time>
      </trkpt>
      <trkpt lat="47.85452" lon="3.57826">
        <ele>95.8</ele>
        <time>2025-03-07T21:11:35Z</time>
      </trkpt>
      <trkpt lat="47.8545" lon="3.57815">
        <ele>95.5</ele>
        <time>2025-03-07T21:11:45Z</time>
      </trkpt>
      <trkpt lat="47.85447" lon="3.57805">
        <ele>95.1</ele>
        <time>2025-03-07T21:12:05Z</time>
      </trkpt>
      <trkpt lat="47.85444" lon="3.57796">
        <ele>95</ele>
        <time>2025-03-07T21:12:23Z</time>
      </trkpt>
      <trkpt lat="47.85437" lon="3.5778">
        <ele>95</ele>
        <time>2025-03-07T21:12:25Z</time>
      </trkpt>
      <trkpt lat="47.85431" lon="3.57768">
        <ele>95</ele>
        <time>2025-03-07T21:12:34Z</time>
      </trkpt>
      <trkpt lat="47.85417" lon="3.57748">
        <ele>95</ele>
        <time>2025-03-07T21:12:39Z</time>
      </trkpt>
      <trkpt lat="47.85401" lon="3.57728">
        <ele>94.4</ele>
        <time>2025-03-07T21:12:59Z</time>
      </trkpt>
      <trkpt lat="47.85395" lon="3.57721">
        <ele>94.2</ele>
        <time>2025-03-07T21:13:09Z</time>
      </trkpt>
      <trkpt lat="47.85389" lon="3.57711">
        <ele>94</ele>
        <time>2025-03-07T21:13:21Z</time>
      </trkpt>
      <trkpt lat="47.85379" lon="3.57693">
        <ele>94</ele>
        <time>2025-03-07T21:13:36Z</time>
      </trkpt>
      <trkpt lat="47.85375" lon="3.57682">
        <ele>94</ele>
        <time>2025-03-07T21:13:45Z</time>
      </trkpt>
      <trkpt lat="47.85371" lon="3.5766">
        <ele>94</ele>
        <time>2025-03-07T21:13:48Z</time>
      </trkpt>
      <trkpt lat="47.85368" lon="3.57654">
        <ele>94</ele>
        <time>2025-03-07T21:14:05Z</time>
      </trkpt>
      <trkpt lat="47.85363" lon="3.57652">
        <ele>94</ele>
        <time>2025-03-07T21:14:19Z</time>
      </trkpt>
      <trkpt lat="47.85357" lon="3.57653">
        <ele>94</ele>
        <time>2025-03-07T21:14:33Z</time>
      </trkpt>
      <trkpt lat="47.85332" lon="3.57664">
        <ele>94</ele>
        <time>2025-03-07T21:14:46Z</time>
      </trkpt>
      <trkpt lat="47.85306" lon="3.57673">
        <ele>94.2</ele>
        <time>2025-03-07T21:15:04Z</time>
      </trkpt>
      <trkpt lat="47.85263" lon="3.5769">
        <ele>94</ele>
        <time>2025-03-07T21:15:06Z</time>
      </trkpt>
      <trkpt lat="47.85229" lon="3.57704">
        <ele>94</ele>
        <time>2025-03-07T21:15:12Z</time>
      </trkpt>
      <trkpt lat="47.85204" lon="3.57714">
        <ele>94</ele>
        <time>2025-03-07T21:15:21Z</time>
      </trkpt>
      <trkpt lat="47.85177" lon="3.57727">
        <ele>94</ele>
        <time>2025-03-07T21:15:37Z</time>
      </trkpt>
      <trkpt lat="47.85162" lon="3.57733">
        <ele>94</ele>
        <time>2025-03-07T21:15:41Z</time>
      </trkpt>
      <trkpt lat="47.85154" lon="3.57734">
        <ele>94</ele>
        <time>2025-03-07T21:15:45Z</time>
      </trkpt>
      <trkpt lat="47.85157" lon="3.57711">
        <ele>93.6</ele>
        <time>2025-03-07T21:15:53Z</time>
      </trkpt>
      <trkpt lat="47.85157" lon="3.57696">
        <ele>93</ele>
        <time>2025-03-07T21:16:08Z</time>
      </trkpt>
      <trkpt lat="47.85155" lon="3.57665">
        <ele>92.6</ele>
        <time>2025-03-07T21:16:13Z</time>
      </trkpt>
      <trkpt lat="47.85153" lon="3.57634">
        <ele>92</ele>
        <time>2025-03-07T21:16:23Z</time>
      </trkpt>
      <trkpt lat="47.85151" lon="3.57626">
        <ele>91.8</ele>
        <time>2025-03-07T21:16:31Z</time>
      </trkpt>
      <trkpt lat="47.85152" lon="3.57615">
        <ele>91.9</ele>
        <time>2025-03-07T21:16:33Z</time>
      </trkpt>
      <trkpt lat="47.85152" lon="3.57608">
        <ele>91.9</ele>
        <time>2025-03-07T21:16:42Z</time>
      </trkpt>
      <trkpt lat="47.85153" lon="3.576">
        <ele>92</ele>
        <time>2025-03-07T21:16:48Z</time>
      </trkpt>
      <trkpt lat="47.85167" lon="3.57556">
        <ele>92</ele>
        <time>2025-03-07T21:17:08Z</time>
      </trkpt>
      <trkpt lat="47.85171" lon="3.57543">
        <ele>91.7</ele>
        <time>2025-03-07T21:17:10Z</time>
      </trkpt>
      <trkpt lat="47.85175" lon="3.57524">
        <ele>91.6</ele>
        <time>2025-03-07T21:17:28Z</time>
      </trkpt>
      <trkpt lat="47.85179" lon="3.57507">
        <ele>91.9</ele>
        <time>2025-03-07T21:17:45Z</time>
      </trkpt>
      <trkpt lat="47.85182" lon="3.57491">
        <ele>91.9</ele>
        <time>2025-03-07T21:17:53Z</time>
      </trkpt>
      <trkpt lat="47.85186" lon="3.57453">
        <ele>91.7</ele>
        <time>2025-03-07T21:18:00Z</time>
      </trkpt>
      <trkpt lat="47.85188" lon="3.57443">
        <ele>91.7</ele>
        <time>2025-03-07T21:18:05Z</time>
      </trkpt>
      <trkpt lat="47.85191" lon="3.57427">
        <ele>91.3</ele>
        <time>2025-03-07T21:18:17Z</time>
      </trkpt>
      <trkpt lat="47.85193" lon="3.5742">
        <ele>91.1</ele>
        <time>2025-03-07T21:18:23Z</time>
      </trkpt>
      <trkpt lat="47.85206" lon="3.57378">
        <ele>91.2</ele>
        <time>2025-03-07T21:18:29Z</time>
      </trkpt>
      <trkpt lat="47.85211" lon="3.5736">
        <ele>91.2</ele>
        <time>2025-03-07T21:18:35Z</time>
      </trkpt>
      <trkpt lat="47.85217" lon="3.57333">
        <ele>91.8</ele>
        <time>2025-03-07T21:18:52Z</time>
      </trkpt>
      <trkpt lat="47.8522" lon="3.57312">
        <ele>91.9</ele>
        <time>2025-03-07T21:19:12Z</time>
      </trkpt>
      <trkpt lat="47.85228" lon="3.57266">
        <ele>91.8</ele>
        <time>2025-03-07T21:19:32Z</time>
      </trkpt>
      <trkpt lat="47.85233" lon="3.57236">
        <ele>91.7</ele>
        <time>2025-03-07T21:19:38Z</time>
      </trkpt>
      <trkpt lat="47.85235" lon="3.57205">
        <ele>91.9</ele>
        <time>2025-03-07T21:19:46Z</time>
      </trkpt>
      <trkpt lat="47.85235" lon="3.57185">
        <ele>91.9</ele>
        <time>2025-03-07T21:20:06Z</time>
      </trkpt>
      <trkpt lat="47.85232" lon="3.5715">
        <ele>91.7</ele>
        <time>2025-03-07T21:20:22Z</time>
      </trkpt>
      <trkpt lat="47.85229" lon="3.5711">
        <ele>91.5</ele>
        <time>2025-03-07T21:20:25Z</time>
      </trkpt>
      <trkpt lat="47.85228" lon="3.57097">
        <ele>91.8</ele>
        <time>2025-03-07T21:20:36Z</time>
      </trkpt>
      <trkpt lat="47.85228" lon="3.57084">
        <ele>92.2</ele>
        <time>2025-03-07T21:20:39Z</time>
      </trkpt>
      <trkpt lat="47.85229" lon="3.57072">
        <ele>92.2</ele>
        <time>2025-03-07T21:20:46Z</time>
      </trkpt>
      <trkpt lat="47.85232" lon="3.5706">
        <ele>92.3</ele>
        <time>2025-03-07T21:20:50Z</time>
      </trkpt>
      <trkpt lat="47.85244" lon="3.57024">
        <ele>92.1</ele>
        <time>2025-03-07T21:20:56Z</time>
      </trkpt>
      <trkpt lat="47.85258" lon="3.56986">
        <ele>92.3</ele>
        <time>2025-03-07T21:20:59Z</time>
      </trkpt>
      <trkpt lat="47.85262" lon="3.56975">
        <ele>92.1</ele>
        <time>2025-03-07T21:21:13Z</time>
      </trkpt>
      <trkpt lat="47.85269" lon="3.56945">
        <ele>92</ele>
        <time>2025-03-07T21:21:19Z</time>
      </trkpt>
      <trkpt lat="47.85279" lon="3.569">
        <ele>92.9</ele>
        <time>2025-03-07T21:21:29Z</time>
      </trkpt>
      <trkpt lat="47.85287" lon="3.56866">
        <ele>92.1</ele>
        <time>2025-03-07T21:21:32Z</time>
      </trkpt>
      <trkpt lat="47.85294" lon="3.56842">
        <ele>92</ele>
        <time>2025-03-07T21:21:42Z</time>
      </trkpt>
      <trkpt lat="47.85302" lon="3.56821">
        <ele>92.4</ele>
        <time>2025-03-07T21:22:01Z</time>
      </trkpt>
      <trkpt lat="47.8532" lon="3.56779">
        <ele>92</ele>
        <time>2025-03-07T21:22:12Z</time>
      </trkpt>
      <trkpt lat="47.85338" lon="3.56743">
        <ele>92.8</ele>
        <time>2025-03-07T21:22:23Z</time>
      </trkpt>
      <trkpt lat="47.85355" lon="3.56708">
        <ele>92.8</ele>
        <time>2025-03-07T21:22:29Z</time>
      </trkpt>
      <trkpt lat="47.85365" lon="3.56689">
        <ele>92.9</ele>
        <time>2025-03-07T21:22:37Z</time>
      </trkpt>
      <trkpt lat="47.85381" lon="3.56651">
        <ele>93.3</ele>
        <time>2025-03-07T21:22:46Z</time>
      </trkpt>
      <trkpt lat="47.85393" lon="3.5662">
        <ele>93.5</ele>
        <time>2025-03-07T21:23:03Z</time>
      </trkpt>
      <trkpt lat="47.85405" lon="3.56584">
        <ele>93.2</ele>
        <time>2025-03-07T21:23:06Z</time>
      </trkpt>
      <trkpt lat="47.85423" lon="3.56534">
        <ele>92.8</ele>
        <time>2025-03-07T21:23:10Z</time>
      </trkpt>
      <trkpt lat="47.85434" lon="3.56494">
        <ele>92.8</ele>
        <time>2025-03-07T21:23:21Z</time>
      </trkpt>
      <trkpt lat="47.85442" lon="3.56452">
        <ele>93.7</ele>
        <time>2025-03-07T21:23:28Z</time>
      </trkpt>
      <trkpt lat="47.8545" lon="3.564">
        <ele>92.7</ele>
        <time>2025-03-07T21:23:33Z</time>
      </trkpt>
      <trkpt lat="47.85452" lon="3.56392">
        <ele>92.4</ele>
        <time>2025-03-07T21:23:45Z</time>
      </trkpt>
      <trkpt lat="47.85455" lon="3.56382">
        <ele>92.3</ele>
        <time>2025-03-07T21:24:04Z</time>
      </trkpt>
      <trkpt lat="47.85463" lon="3.56363">
        <ele>92.9</ele>
        <time>2025-03-07T21:24:11Z</time>
      </trkpt>
      <trkpt lat="47.85469" lon="3.5635">
        <ele>93.7</ele>
        <time>2025-03-07T21:24:20Z</time>
      </trkpt>
      <trkpt lat="47.85477" lon="3.56337">
        <ele>94</ele>
        <time>2025-03-07T21:24:23Z</time>
      </trkpt>
      <trkpt lat="47.85499" lon="3.56309">
        <ele>94</ele>
        <time>2025-03-07T21:24:41Z</time>
      </trkpt>
      <trkpt lat="47.85519" lon="3.56291">
        <ele>93.7</ele>
        <time>2025-03-07T21:24:51Z</time>
      </trkpt>
      <trkpt lat="47.85538" lon="3.56273">
        <ele>93.7</ele>
        <time>2025-03-07T21:24:59Z</time>
      </trkpt>
      <trkpt lat="47.85556" lon="3.56258">
        <ele>93.7</ele>
        <time>2025-03-07T21:25:13Z</time>
      </trkpt>
      <trkpt lat="47.85568" lon="3.56248">
        <ele>93.9</ele>
        <time>2025-03-07T21:25:29Z</time>
      </trkpt>
      <trkpt lat="47.85573" lon="3.56241">
        <ele>93.8</ele>
        <time>2025-03-07T21:25:36Z</time>
      </trkpt>
      <trkpt lat="47.85576" lon="3.56234">
        <ele>93.7</ele>
        <time>2025-03-07T21:25:52Z</time>
      </trkpt>
      <trkpt lat="47.85577" lon="3.5623">
        <ele>93.7</ele>
        <time>2025-03-07T21:25:58Z</time>
      </trkpt>
      <trkpt lat="47.85577" lon="3.56221">
        <ele>93.5</ele>
        <time>2025-03-07T21:26:04Z</time>
      </trkpt>
      <trkpt lat="47.85575" lon="3.56186">
        <ele>93.2</ele>
        <time>2025-03-07T21:26:15Z</time>
      </trkpt>
      <trkpt lat="47.85569" lon="3.56137">
        <ele>93</ele>
        <time>2025-03-07T21:26:25Z</time>
      </trkpt>
      <trkpt lat="47.85564" lon="3.5608">
        <ele>93.6</ele>
        <time>2025-03-07T21:26:44Z</time>
      </trkpt>
      <trkpt lat="47.85559" lon="3.56044">
        <ele>93.3</ele>
        <time>2025-03-07T21:27:01Z</time>
      </trkpt>
      <trkpt lat="47.85553" lon="3.55992">
        <ele>92.9</ele>
        <time>2025-03-07T21:27:14Z</time>
      </trkpt>
      <trkpt lat="47.85547" lon="3.55943">
        <ele>92.8</ele>
        <time>2025-03-07T21:27:32Z</time>
      </trkpt>
      <trkpt lat="47.85543" lon="3.55901">
        <ele>93.4</ele>
        <time>2025-03-07T21:27:36Z</time>
      </trkpt>
      <trkpt lat="47.85541" lon="3.5589">
        <ele>93.4</ele>
        <time>2025-03-07T21:27:43Z</time>
      </trkpt>
      <trkpt lat="47.85528" lon="3.55842">
        <ele>91.4</ele>
        <time>2025-03-07T21:27:47Z</time>
      </trkpt>
      <trkpt lat="47.85525" lon="3.55827">
        <ele>90.9</ele>
        <time>2025-03-07T21:28:02Z</time>
      </trkpt>
      <trkpt lat="47.85524" lon="3.55819">
        <ele>90.6</ele>
        <time>2025-03-07T21:28:09Z</time>
      </trkpt>
      <trkpt lat="47.85524" lon="3.55809">
        <ele>90.1</ele>
        <time>2025-03-07T21:28:17Z</time>
      </trkpt>
      <trkpt lat="47.85527" lon="3.558">
        <ele>89.8</ele>
        <time>2025-03-07T21:28:21Z</time>
      </trkpt>
      <trkpt lat="47.85532" lon="3.55794">
        <ele>90.2</ele>
        <time>2025-03-07T21:28:36Z</time>
      </trkpt>
      <trkpt lat="47.85537" lon="3.55791">
        <ele>90.6</ele>
        <time>2025-03-07T21:28:47Z</time>
      </trkpt>
      <trkpt lat="47.85551" lon="3.55787">
        <ele>91.5</ele>
        <time>2025-03-07T21:28:52Z</time>
      </trkpt>
      <trkpt lat="47.85579" lon="3.55779">
        <ele>90.2</ele>
        <time>2025-03-07T21:29:07Z</time>
      </trkpt>
      <trkpt lat="47.85588" lon="3.55779">
        <ele>90.2</ele>
        <time>2025-03-07T21:29:11Z</time>
      </trkpt>
      <trkpt lat="47.85597" lon="3.55779">
        <ele>90.6</ele>
        <time>2025-03-07T21:29:25Z</time>
      </trkpt>
      <trkpt lat="47.85599" lon="3.55789">
        <ele>91.1</ele>
        <time>2025-03-07T21:29:36Z</time>
      </trkpt>
      <trkpt lat="47.85598" lon="3.55812">
        <ele>92</ele>
        <time>2025-03-07T21:29:51Z</time>
      </trkpt>
      <trkpt lat="47.85597" lon="3.5582">
        <ele>92</ele>
        <time>2025-03-07T21:29:59Z</time>
      </trkpt>
      <trkpt lat="47.85595" lon="3.55834">
        <ele>92</ele>
        <time>2025-03-07T21:30:02Z</time>
      </trkpt>
      <trkpt lat="47.85594" lon="3.55846">
        <ele>92.4</ele>
        <time>2025-03-07T21:30:13Z</time>
      </trkpt>
      <trkpt lat="47.85593" lon="3.55855">
        <ele>92.8</ele>
        <time>2025-03-07T21:30:29Z</time>
      </trkpt>
      <trkpt lat="47.85598" lon="3.55912">
        <ele>93.9</ele>
        <time>2025-03-07T21:30:44Z</time>
      </trkpt>
      <trkpt lat="47.85603" lon="3.55966">
        <ele>93.6</ele>
        <time>2025-03-07T21:30:49Z</time>
      </trkpt>
      <trkpt lat="47.85608" lon="3.56021">
        <ele>93.2</ele>
        <time>2025-03-07T21:30:57Z</time>
      </trkpt>
      <trkpt lat="47.85613" lon="3.56073">
        <ele>92.4</ele>
        <time>2025-03-07T21:31:06Z</time>
      </trkpt>
      <trkpt lat="47.85619" lon="3.56126">
        <ele>93</ele>
        <time>2025-03-07T21:31:09Z</time>
      </trkpt>
      <trkpt lat="47.85623" lon="3.56168">
        <ele>93.2</ele>
        <time>2025-03-07T21:31:29Z</time>
      </trkpt>
      <trkpt lat="47.85625" lon="3.5618">
        <ele>93.3</ele>
        <time>2025-03-07T21:31:39Z</time>
      </trkpt>
      <trkpt lat="47.8563" lon="3.56192">
        <ele>93.3</ele>
        <time>2025-03-07T21:31:50Z</time>
      </trkpt>
      <trkpt lat="47.85635" lon="3.56199">
        <ele>93.2</ele>
        <time>2025-03-07T21:31:57Z</time>
      </trkpt>
      <trkpt lat="47.85638" lon="3.56202">
        <ele>93</ele>
        <time>2025-03-07T21:32:14Z</time>
      </trkpt>
      <trkpt lat="47.85643" lon="3.56204">
        <ele>92.9</ele>
        <time>2025-03-07T21:32:33Z</time>
      </trkpt>
      <trkpt lat="47.85648" lon="3.56204">
        <ele>92.8</ele>
        <time>2025-03-07T21:32:39Z</time>
      </trkpt>
      <trkpt lat="47.85653" lon="3.56203">
        <ele>92.7</ele>
        <time>2025-03-07T21:32:51Z</time>
      </trkpt>
      <trkpt lat="47.8566" lon="3.562">
        <ele>92.7</ele>
        <time>2025-03-07T21:32:58Z</time>
      </trkpt>
      <trkpt lat="47.85692" lon="3.56181">
        <ele>93.5</ele>
        <time>2025-03-07T21:33:05Z</time>
      </trkpt>
      <trkpt lat="47.85715" lon="3.56167">
        <ele>93.7</ele>
        <time>2025-03-07T21:33:20Z</time>
      </trkpt>
      <trkpt lat="47.8575" lon="3.56147">
        <ele>93.4</ele>
        <time>2025-03-07T21:33:32Z</time>
      </trkpt>
      <trkpt lat="47.85777" lon="3.56132">
        <ele>92.3</ele>
        <time>2025-03-07T21:33:48Z</time>
      </trkpt>
      <trkpt lat="47.85811" lon="3.56114">
        <ele>93.7</ele>
        <time>2025-03-07T21:34:06Z</time>
      </trkpt>
      <trkpt lat="47.85837" lon="3.56102">
        <ele>93</ele>
        <time>2025-03-07T21:34:17Z</time>
      </trkpt>
      <trkpt lat="47.85858" lon="3.56093">
        <ele>93.2</ele>
        <time>2025-03-07T21:34:28Z</time>
      </trkpt>
      <trkpt lat="47.85888" lon="3.56079">
        <ele>93.2</ele>
        <time>2025-03-07T21:34:42Z</time>
      </trkpt>
      <trkpt lat="47.85906" lon="3.56067">
        <ele>93.3</ele>
        <time>2025-03-07T21:34:57Z</time>
      </trkpt>
      <trkpt lat="47.85942" lon="3.5604">
        <ele>92.6</ele>
        <time>2025-03-07T21:35:15Z</time>
      </trkpt>
      <trkpt lat="47.85983" lon="3.56006">
        <ele>92.9</ele>
        <time>2025-03-07T21:35:30Z</time>
      </trkpt>
      <trkpt lat="47.85993" lon="3.55997">
        <ele>93</ele>
        <time>2025-03-07T21:35:47Z</time>
      </trkpt>
      <trkpt lat="47.86043" lon="3.55967">
        <ele>93</ele>
        <time>2025-03-07T21:36:02Z</time>
      </trkpt>
      <trkpt lat="47.8611" lon="3.5593">
        <ele>92</ele>
        <time>2025-03-07T21:36:14Z</time>
      </trkpt>
      <trkpt lat="47.86167" lon="3.55899">
        <ele>92</ele>
        <time>2025-03-07T21:36:28Z</time>
      </trkpt>
      <trkpt lat="47.86178" lon="3.55894">
        <ele>91.9</ele>
        <time>2025-03-07T21:36:45Z</time>
      </trkpt>
      <trkpt lat="47.86198" lon="3.55892">
        <ele>91.9</ele>
        <time>2025-03-07T21:37:00Z</time>
      </trkpt>
      <trkpt lat="47.86229" lon="3.55899">
        <ele>92.3</ele>
        <time>2025-03-07T21:37:11Z</time>
      </trkpt>
      <trkpt lat="47.86267" lon="3.55911">
        <ele>92.5</ele>
        <time>2025-03-07T21:37:15Z</time>
      </trkpt>
      <trkpt lat="47.86308" lon="3.55923">
        <ele>92</ele>
        <time>2025-03-07T21:37:22Z</time>
      </trkpt>
      <trkpt lat="47.86362" lon="3.5594">
        <ele>91.8</ele>
        <time>2025-03-07T21:37:42Z</time>
      </trkpt>
      <trkpt lat="47.86364" lon="3.55935">
        <ele>91.7</ele>
        <time>2025-03-07T21:37:48Z</time>
      </trkpt>
      <trkpt lat="47.86408" lon="3.55846">
        <ele>91.4</ele>
        <time>2025-03-07T21:38:06Z</time>
      </trkpt>
      <trkpt lat="47.86424" lon="3.55814">
        <ele>91.7</ele>
        <time>2025-03-07T21:38:11Z</time>
      </trkpt>
      <trkpt lat="47.86442" lon="3.55776">
        <ele>91</ele>
        <time>2025-03-07T21:38:20Z</time>
      </trkpt>
      <trkpt lat="47.86448" lon="3.5577">
        <ele>91</ele>
        <time>2025-03-07T21:38:24Z</time>
      </trkpt>
      <trkpt lat="47.86468" lon="3.55755">
        <ele>90.3</ele>
        <time>2025-03-07T21:38:29Z</time>
      </trkpt>
      <trkpt lat="47.86455" lon="3.55713">
        <ele>89.9</ele>
        <time>2025-03-07T21:38:33Z</time>
      </trkpt>
      <trkpt lat="47.86449" lon="3.5569">
        <ele>89.8</ele>
        <time>2025-03-07T21:38:45Z</time>
      </trkpt>
      <trkpt lat="47.86449" lon="3.55679">
        <ele>89.9</ele>
        <time>2025-03-07T21:38:53Z</time>
      </trkpt>
      <trkpt lat="47.86458" lon="3.55634">
        <ele>89.9</ele>
        <time>2025-03-07T21:39:09Z</time>
      </trkpt>
      <trkpt lat="47.86465" lon="3.5559">
        <ele>89.1</ele>
        <time>2025-03-07T21:39:13Z</time>
      </trkpt>
      <trkpt lat="47.86467" lon="3.55582">
        <ele>89</ele>
        <time>2025-03-07T21:39:32Z</time>
      </trkpt>
      <trkpt lat="47.86435" lon="3.55544">
        <ele>89</ele>
        <time>2025-03-07T21:39:47Z</time>
      </trkpt>
      <trkpt lat="47.86431" lon="3.5554">
        <ele>89</ele>
        <time>2025-03-07T21:39:57Z</time>
      </trkpt>
      <trkpt lat="47.86404" lon="3.5549">
        <ele>89</ele>
        <time>2025-03-07T21:40:17Z</time>
      </trkpt>
      <trkpt lat="47.86388" lon="3.55458">
        <ele>89</ele>
        <time>2025-03-07T21:40:26Z</time>
      </trkpt>
      <trkpt lat="47.86362" lon="3.55402">
        <ele>89</ele>
        <time>2025-03-07T21:40:44Z</time>
      </trkpt>
      <trkpt lat="47.86326" lon="3.55332">
        <ele>89</ele>
        <time>2025-03-07T21:40:46Z</time>
      </trkpt>
      <trkpt lat="47.86285" lon="3.55256">
        <ele>89</ele>
        <time>2025-03-07T21:41:00Z</time>
      </trkpt>
      <trkpt lat="47.86284" lon="3.55253">
        <ele>89</ele>
        <time>2025-03-07T21:41:04Z</time>
      </trkpt>
      <trkpt lat="47.8627" lon="3.55237">
        <ele>89</ele>
        <time>2025-03-07T21:41:21Z</time>
      </trkpt>
      <trkpt lat="47.86267" lon="3.55232">
        <ele>89</ele>
        <time>2025-03-07T21:41:23Z</time>
      </trkpt>
      <trkpt lat="47.8625" lon="3.5522">
        <ele>89</ele>
        <time>2025-03-07T21:41:41Z</time>
      </trkpt>
      <trkpt lat="47.86238" lon="3.55212">
        <ele>89</ele>
        <time>2025-03-07T21:41:51Z</time>
      </trkpt>
      <trkpt lat="47.86204" lon="3.55202">
        <ele>89</ele>
        <time>2025-03-07T21:42:06Z</time>
      </trkpt>
      <trkpt lat="47.86183" lon="3.55197">
        <ele>89</ele>
        <time>2025-03-07T21:42:11Z</time>
      </trkpt>
      <trkpt lat="47.86169" lon="3.55195">
        <ele>89</ele>
        <time>2025-03-07T21:42:26Z</time>
      </trkpt>
      <trkpt lat="47.86147" lon="3.55195">
        <ele>89</ele>
        <time>2025-03-07T21:42:31Z</time>
      </trkpt>
      <trkpt lat="47.86118" lon="3.55198">
        <ele>89.1</ele>
        <time>2025-03-07T21:42:44Z</time>
      </trkpt>
      <trkpt lat="47.86095" lon="3.55202">
        <ele>89.3</ele>
        <time>2025-03-07T21:43:03Z</time>
      </trkpt>
      <trkpt lat="47.86078" lon="3.55208">
        <ele>89.5</ele>
        <time>2025-03-07T21:43:05Z</time>
      </trkpt>
      <trkpt lat="47.86063" lon="3.55215">
        <ele>89.7</ele>
        <time>2025-03-07T21:43:07Z</time>
      </trkpt>
      <trkpt lat="47.8603" lon="3.55243">
        <ele>89.8</ele>
        <time>2025-03-07T21:43:12Z</time>
      </trkpt>
      <trkpt lat="47.86007" lon="3.55274">
        <ele>90.1</ele>
        <time>2025-03-07T21:43:17Z</time>
      </trkpt>
      <trkpt lat="47.85974" lon="3.55322">
        <ele>90.2</ele>
        <time>2025-03-07T21:43:31Z</time>
      </trkpt>
      <trkpt lat="47.85948" lon="3.55365">
        <ele>90.3</ele>
        <time>2025-03-07T21:43:34Z</time>
      </trkpt>
      <trkpt lat="47.85913" lon="3.55429">
        <ele>90.7</ele>
        <time>2025-03-07T21:43:43Z</time>
      </trkpt>
      <trkpt lat="47.85895" lon="3.55461">
        <ele>90.4</ele>
        <time>2025-03-07T21:43:50Z</time>
      </trkpt>
      <trkpt lat="47.85873" lon="3.55499">
        <ele>90.2</ele>
        <time>2025-03-07T21:43:55Z</time>
      </trkpt>
      <trkpt lat="47.85855" lon="3.55527">
        <ele>91.3</ele>
        <time>2025-03-07T21:43:59Z</time>
      </trkpt>
      <trkpt lat="47.85841" lon="3.55548">
        <ele>90.9</ele>
        <time>2025-03-07T21:44:15Z</time>
      </trkpt>
      <trkpt lat="47.85822" lon="3.55572">
        <ele>91</ele>
        <time>2025-03-07T21:44:20Z</time>
      </trkpt>
      <trkpt lat="47.85792" lon="3.55608">
        <ele>90.9</ele>
        <time>2025-03-07T21:44:29Z</time>
      </trkpt>
      <trkpt lat="47.8577" lon="3.55636">
        <ele>91</ele>
        <time>2025-03-07T21:44:42Z</time>
      </trkpt>
      <trkpt lat="47.85744" lon="3.55663">
        <ele>90.4</ele>
        <time>2025-03-07T21:45:02Z</time>
      </trkpt>
      <trkpt lat="47.85713" lon="3.55694">
        <ele>91.3</ele>
        <time>2025-03-07T21:45:13Z</time>
      </trkpt>
      <trkpt lat="47.85697" lon="3.5571">
        <ele>91.2</ele>
        <time>2025-03-07T21:45:24Z</time>
      </trkpt>
      <trkpt lat="47.85669" lon="3.55735">
        <ele>91</ele>
        <time>2025-03-07T21:45:28Z</time>
      </trkpt>
      <trkpt lat="47.85664" lon="3.55739">
        <ele>91</ele>
        <time>2025-03-07T21:45:45Z</time>
      </trkpt>
      <trkpt lat="47.85654" lon="3.55746">
        <ele>90.8</ele>
        <time>2025-03-07T21:45:57Z</time>
      </trkpt>
      <trkpt lat="47.8563" lon="3.55758">
        <ele>90.1</ele>
        <time>2025-03-07T21:46:14Z</time>
      </trkpt>
      <trkpt lat="47.85613" lon="3.55767">
        <ele>90.5</ele>
        <time>2025-03-07T21:46:30Z</time>
      </trkpt>
      <trkpt lat="47.85608" lon="3.55771">
        <ele>90.7</ele>
        <time>2025-03-07T21:46:49Z</time>
      </trkpt>
      <trkpt lat="47.85598" lon="3.55778">
        <ele>90.5</ele>
        <time>2025-03-07T21:47:07Z</time>
      </trkpt>
      <trkpt lat="47.85594" lon="3.55777">
        <ele>90.4</ele>
        <time>2025-03-07T21:47:16Z</time>
      </trkpt>
      <trkpt lat="47.85588" lon="3.55777">
        <ele>90.1</ele>
        <time>2025-03-07T21:47:19Z</time>
      </trkpt>
      <trkpt lat="47.85579" lon="3.55778">
        <ele>90</ele>
        <time>2025-03-07T21:47:26Z</time>
      </trkpt>
      <trkpt lat="47.85571" lon="3.5578">
        <ele>90.3</ele>
        <time>2025-03-07T21:47:33Z</time>
      </trkpt>
      <trkpt lat="47.85563" lon="3.55783">
        <ele>90.9</ele>
        <time>2025-03-07T21:47:52Z</time>
      </trkpt>
      <trkpt lat="47.85537" lon="3.5579">
        <ele>90.5</ele>
        <time>2025-03-07T21:47:57Z</time>
      </trkpt>
      <trkpt lat="47.85532" lon="3.55792">
        <ele>90.1</ele>
        <time>2025-03-07T21:48:17Z</time>
      </trkpt>
      <trkpt lat="47.85527" lon="3.55798">
        <ele>89.7</ele>
        <time>2025-03-07T21:48:30Z</time>
      </trkpt>
      <trkpt lat="47.85522" lon="3.55796">
        <ele>89.6</ele>
        <time>2025-03-07T21:48:39Z</time>
      </trkpt>
      <trkpt lat="47.85518" lon="3.55795">
        <ele>89.6</ele>
        <time>2025-03-07T21:48:59Z</time>
      </trkpt>
      <trkpt lat="47.85493" lon="3.55799">
        <ele>89.6</ele>
        <time>2025-03-07T21:49:14Z</time>
      </trkpt>
      <trkpt lat="47.85474" lon="3.55799">
        <ele>89</ele>
        <time>2025-03-07T21:49:27Z</time>
      </trkpt>
      <trkpt lat="47.85457" lon="3.55797">
        <ele>89</ele>
        <time>2025-03-07T21:49:38Z</time>
      </trkpt>
      <trkpt lat="47.8543" lon="3.55796">
        <ele>89</ele>
        <time>2025-03-07T21:49:51Z</time>
      </trkpt>
      <trkpt lat="47.85393" lon="3.55796">
        <ele>89</ele>
        <time>2025-03-07T21:49:58Z</time>
      </trkpt>
      <trkpt lat="47.85367" lon="3.55799">
        <ele>89</ele>
        <time>2025-03-07T21:50:07Z</time>
      </trkpt>
      <trkpt lat="47.85341" lon="3.55806">
        <ele>89</ele>
        <time>2025-03-07T21:50:25Z</time>
      </trkpt>
      <trkpt lat="47.85331" lon="3.55811">
        <ele>89</ele>
        <time>2025-03-07T21:50:37Z</time>
      </trkpt>
      <trkpt lat="47.85324" lon="3.55819">
        <ele>89</ele>
        <time>2025-03-07T21:50:53Z</time>
      </trkpt>
      <trkpt lat="47.85318" lon="3.55818">
        <ele>89</ele>
        <time>2025-03-07T21:51:04Z</time>
      </trkpt>
      <trkpt lat="47.85313" lon="3.55819">
        <ele>89</ele>
        <time>2025-03-07T21:51:08Z</time>
      </trkpt>
      <trkpt lat="47.85281" lon="3.55837">
        <ele>89</ele>
        <time>2025-03-07T21:51:15Z</time>
      </trkpt>
      <trkpt lat="47.85265" lon="3.5585">
        <ele>89</ele>
        <time>2025-03-07T21:51:28Z</time>
      </trkpt>
      <trkpt lat="47.85246" lon="3.55869">
        <ele>89.2</ele>
        <time>2025-03-07T21:51:42Z</time>
      </trkpt>
      <trkpt lat="47.85232" lon="3.55889">
        <ele>89.4</ele>
        <time>2025-03-07T21:51:45Z</time>
      </trkpt>
      <trkpt lat="47.85226" lon="3.55904">
        <ele>89.1</ele>
        <time>2025-03-07T21:52:05Z</time>
      </trkpt>
      <trkpt lat="47.85218" lon="3.55936">
        <ele>89.6</ele>
        <time>2025-03-07T21:52:09Z</time>
      </trkpt>
      <trkpt lat="47.85216" lon="3.55957">
        <ele>89.8</ele>
        <time>2025-03-07T21:52:28Z</time>
      </trkpt>
      <trkpt lat="47.85216" lon="3.55969">
        <ele>89.8</ele>
        <time>2025-03-07T21:52:46Z</time>
      </trkpt>
      <trkpt lat="47.85218" lon="3.55991">
        <ele>89.8</ele>
        <time>2025-03-07T21:52:53Z</time>
      </trkpt>
      <trkpt lat="47.85222" lon="3.56015">
        <ele>90.5</ele>
        <time>2025-03-07T21:53:09Z</time>
      </trkpt>
      <trkpt lat="47.85231" lon="3.56038">
        <ele>90.8</ele>
        <time>2025-03-07T21:53:25Z</time>
      </trkpt>
      <trkpt lat="47.85238" lon="3.56053">
        <ele>90.8</ele>
        <time>2025-03-07T21:53:45Z</time>
      </trkpt>
      <trkpt lat="47.85255" lon="3.56077">
        <ele>90.9</ele>
        <time>2025-03-07T21:54:01Z</time>
      </trkpt>
      <trkpt lat="47.85279" lon="3.56108">
        <ele>91.3</ele>
        <time>2025-03-07T21:54:07Z</time>
      </trkpt>
      <trkpt lat="47.85297" lon="3.56132">
        <ele>90.9</ele>
        <time>2025-03-07T21:54:26Z</time>
      </trkpt>
      <trkpt lat="47.85316" lon="3.56157">
        <ele>91</ele>
        <time>2025-03-07T21:54:41Z</time>
      </trkpt>
      <trkpt lat="47.85321" lon="3.56164">
        <ele>91.3</ele>
        <time>2025-03-07T21:55:00Z</time>
      </trkpt>
      <trkpt lat="47.85327" lon="3.56169">
        <ele>91.9</ele>
        <time>2025-03-07T21:55:11Z</time>
      </trkpt>
      <trkpt lat="47.85327" lon="3.56174">
        <ele>91.5</ele>
        <time>2025-03-07T21:55:14Z</time>
      </trkpt>
      <trkpt lat="47.85342" lon="3.56191">
        <ele>91.2</ele>
        <time>2025-03-07T21:55:33Z</time>
      </trkpt>
      <trkpt lat="47.85352" lon="3.56221">
        <ele>89.1</ele>
        <time>2025-03-07T21:55:46Z</time>
      </trkpt>
      <trkpt lat="47.8536" lon="3.56248">
        <ele>89.9</ele>
        <time>2025-03-07T21:56:02Z</time>
      </trkpt>
      <trkpt lat="47.85365" lon="3.56276">
        <ele>90</ele>
        <time>2025-03-07T21:56:21Z</time>
      </trkpt>
      <trkpt lat="47.85366" lon="3.56316">
        <ele>89.2</ele>
        <time>2025-03-07T21:56:34Z</time>
      </trkpt>
      <trkpt lat="47.85361" lon="3.56362">
        <ele>90</ele>
        <time>2025-03-07T21:56:38Z</time>
      </trkpt>
      <trkpt lat="47.85353" lon="3.56406">
        <ele>89.7</ele>
        <time>2025-03-07T21:56:51Z</time>
      </trkpt>
      <trkpt lat="47.85349" lon="3.56431">
        <ele>89.5</ele>
        <time>2025-03-07T21:57:05Z</time>
      </trkpt>
      <trkpt lat="47.8534" lon="3.56463">
        <ele>89.7</ele>
        <time>2025-03-07T21:57:20Z</time>
      </trkpt>
      <trkpt lat="47.85331" lon="3.56491">
        <ele>89.9</ele>
        <time>2025-03-07T21:57:36Z</time>
      </trkpt>
      <trkpt lat="47.85317" lon="3.56522">
        <ele>89.4</ele>
        <time>2025-03-07T21:57:39Z</time>
      </trkpt>
      <trkpt lat="47.85306" lon="3.56542">
        <ele>89.5</ele>
        <time>2025-03-07T21:57:48Z</time>
      </trkpt>
      <trkpt lat="47.85292" lon="3.56563">
        <ele>89.7</ele>
        <time>2025-03-07T21:58:02Z</time>
      </trkpt>
      <trkpt lat="47.85266" lon="3.56605">
        <ele>89.6</ele>
        <time>2025-03-07T21:58:19Z</time>
      </trkpt>
      <trkpt lat="47.85243" lon="3.56643">
        <ele>89.7</ele>
        <time>2025-03-07T21:58:39Z</time>
      </trkpt>
      <trkpt lat="47.85226" lon="3.56671">
        <ele>89.3</ele>
        <time>2025-03-07T21:58:48Z</time>
      </trkpt>
      <trkpt lat="47.85212" lon="3.56696">
        <ele>89.6</ele>
        <time>2025-03-07T21:59:02Z</time>
      </trkpt>
      <trkpt lat="47.85206" lon="3.56707">
        <ele>89.4</ele>
        <time>2025-03-07T21:59:04Z</time>
      </trkpt>
      <trkpt lat="47.85197" lon="3.5673">
        <ele>89.4</ele>
        <time>2025-03-07T21:59:14Z</time>
      </trkpt>
      <trkpt lat="47.85194" lon="3.56739">
        <ele>89.6</ele>
        <time>2025-03-07T21:59:31Z</time>
      </trkpt>
      <trkpt lat="47.85187" lon="3.56762">
        <ele>89.8</ele>
        <time>2025-03-07T21:59:45Z</time>
      </trkpt>
      <trkpt lat="47.85185" lon="3.56774">
        <ele>89.9</ele>
        <time>2025-03-07T21:59:54Z</time>
      </trkpt>
      <trkpt lat="47.85181" lon="3.56805">
        <ele>90</ele>
        <time>2025-03-07T22:00:03Z</time>
      </trkpt>
      <trkpt lat="47.85179" lon="3.56828">
        <ele>89.4</ele>
        <time>2025-03-07T22:00:16Z</time>
      </trkpt>
      <trkpt lat="47.85179" lon="3.56853">
        <ele>89.3</ele>
        <time>2025-03-07T22:00:19Z</time>
      </trkpt>
      <trkpt lat="47.85184" lon="3.56901">
        <ele>89.9</ele>
        <time>2025-03-07T22:00:23Z</time>
      </trkpt>
      <trkpt lat="47.85194" lon="3.56955">
        <ele>91</ele>
        <time>2025-03-07T22:00:40Z</time>
      </trkpt>
      <trkpt lat="47.85206" lon="3.5702">
        <ele>91.4</ele>
        <time>2025-03-07T22:00:46Z</time>
      </trkpt>
      <trkpt lat="47.85217" lon="3.57072">
        <ele>91.8</ele>
        <time>2025-03-07T22:01:01Z</time>
      </trkpt>
      <trkpt lat="47.85223" lon="3.57093">
        <ele>91.7</ele>
        <time>2025-03-07T22:01:16Z</time>
      </trkpt>
      <trkpt lat="47.85226" lon="3.57097">
        <ele>91.7</ele>
        <time>2025-03-07T22:01:27Z</time>
      </trkpt>
      <trkpt lat="47.85228" lon="3.57115">
        <ele>91.4</ele>
        <time>2025-03-07T22:01:35Z</time>
      </trkpt>
      <trkpt lat="47.85231" lon="3.5715">
        <ele>91.6</ele>
        <time>2025-03-07T22:01:54Z</time>
      </trkpt>
      <trkpt lat="47.85234" lon="3.57185">
        <ele>91.8</ele>
        <time>2025-03-07T22:02:08Z</time>
      </trkpt>
      <trkpt lat="47.85234" lon="3.57204">
        <ele>91.8</ele>
        <time>2025-03-07T22:02:25Z</time>
      </trkpt>
      <trkpt lat="47.85231" lon="3.57235">
        <ele>91.7</ele>
        <time>2025-03-07T22:02:42Z</time>
      </trkpt>
      <trkpt lat="47.85227" lon="3.57265">
        <ele>91.8</ele>
        <time>2025-03-07T22:02:49Z</time>
      </trkpt>
      <trkpt lat="47.85219" lon="3.57311">
        <ele>91.9</ele>
        <time>2025-03-07T22:02:53Z</time>
      </trkpt>
      <trkpt lat="47.85215" lon="3.57332">
        <ele>91.8</ele>
        <time>2025-03-07T22:03:09Z</time>
      </trkpt>
      <trkpt lat="47.8521" lon="3.57358">
        <ele>91.2</ele>
        <time>2025-03-07T22:03:15Z</time>
      </trkpt>
      <trkpt lat="47.85196" lon="3.57403">
        <ele>91.1</ele>
        <time>2025-03-07T22:03:26Z</time>
      </trkpt>
      <trkpt lat="47.85192" lon="3.57419">
        <ele>91.1</ele>
        <time>2025-03-07T22:03:37Z</time>
      </trkpt>
      <trkpt lat="47.8519" lon="3.57427">
        <ele>91.3</ele>
        <time>2025-03-07T22:03:41Z</time>
      </trkpt>
      <trkpt lat="47.85187" lon="3.57443">
        <ele>91.7</ele>
        <time>2025-03-07T22:03:48Z</time>
      </trkpt>
      <trkpt lat="47.85185" lon="3.57452">
        <ele>91.7</ele>
        <time>2025-03-07T22:03:55Z</time>
      </trkpt>
      <trkpt lat="47.85181" lon="3.5749">
        <ele>91.8</ele>
        <time>2025-03-07T22:04:00Z</time>
      </trkpt>
      <trkpt lat="47.85178" lon="3.57507">
        <ele>91.8</ele>
        <time>2025-03-07T22:04:09Z</time>
      </trkpt>
      <trkpt lat="47.8517" lon="3.57542">
        <ele>91.7</ele>
        <time>2025-03-07T22:04:20Z</time>
      </trkpt>
      <trkpt lat="47.85153" lon="3.57595">
        <ele>92</ele>
        <time>2025-03-07T22:04:28Z</time>
      </trkpt>
      <trkpt lat="47.85152" lon="3.57599">
        <ele>92</ele>
        <time>2025-03-07T22:04:40Z</time>
      </trkpt>
      <trkpt lat="47.85151" lon="3.57608">
        <ele>91.9</ele>
        <time>2025-03-07T22:04:47Z</time>
      </trkpt>
      <trkpt lat="47.8515" lon="3.57626">
        <ele>91.8</ele>
        <time>2025-03-07T22:04:59Z</time>
      </trkpt>
      <trkpt lat="47.8515" lon="3.57627">
        <ele>91.8</ele>
        <time>2025-03-07T22:05:08Z</time>
      </trkpt>
      <trkpt lat="47.85152" lon="3.57634">
        <ele>91.9</ele>
        <time>2025-03-07T22:05:14Z</time>
      </trkpt>
      <trkpt lat="47.85154" lon="3.57665">
        <ele>92.5</ele>
        <time>2025-03-07T22:05:30Z</time>
      </trkpt>
      <trkpt lat="47.85156" lon="3.57696">
        <ele>93</ele>
        <time>2025-03-07T22:05:40Z</time>
      </trkpt>
      <trkpt lat="47.85156" lon="3.5771">
        <ele>93.6</ele>
        <time>2025-03-07T22:05:50Z</time>
      </trkpt>
      <trkpt lat="47.85153" lon="3.57735">
        <ele>94</ele>
        <time>2025-03-07T22:05:52Z</time>
      </trkpt>
      <trkpt lat="47.85149" lon="3.5774">
        <ele>94</ele>
        <time>2025-03-07T22:05:59Z</time>
      </trkpt>
      <trkpt lat="47.8514" lon="3.57749">
        <ele>94</ele>
        <time>2025-03-07T22:06:06Z</time>
      </trkpt>
      <trkpt lat="47.85137" lon="3.57754">
        <ele>94</ele>
        <time>2025-03-07T22:06:26Z</time>
      </trkpt>
      <trkpt lat="47.85135" lon="3.57758">
        <ele>94</ele>
        <time>2025-03-07T22:06:42Z</time>
      </trkpt>
      <trkpt lat="47.85135" lon="3.57764">
        <ele>94</ele>
        <time>2025-03-07T22:06:47Z</time>
      </trkpt>
      <trkpt lat="47.8513" lon="3.57774">
        <ele>94</ele>
        <time>2025-03-07T22:07:04Z</time>
      </trkpt>
      <trkpt lat="47.85094" lon="3.57788">
        <ele>94.4</ele>
        <time>2025-03-07T22:07:12Z</time>
      </trkpt>
      <trkpt lat="47.85051" lon="3.57805">
        <ele>94.8</ele>
        <time>2025-03-07T22:07:14Z</time>
      </trkpt>
      <trkpt lat="47.8504" lon="3.57822">
        <ele>94.8</ele>
        <time>2025-03-07T22:07:21Z</time>
      </trkpt>
      <trkpt lat="47.85035" lon="3.57836">
        <ele>95</ele>
        <time>2025-03-07T22:07:33Z</time>
      </trkpt>
      <trkpt lat="47.85034" lon="3.57869">
        <ele>95.5</ele>
        <time>2025-03-07T22:07:44Z</time>
      </trkpt>
      <trkpt lat="47.84986" lon="3.57869">
        <ele>95.4</ele>
        <time>2025-03-07T22:07:54Z</time>
      </trkpt>
      <trkpt lat="47.84937" lon="3.57874">
        <ele>94.5</ele>
        <time>2025-03-07T22:08:02Z</time>
      </trkpt>
      <trkpt lat="47.84887" lon="3.57879">
        <ele>93.6</ele>
        <time>2025-03-07T22:08:06Z</time>
      </trkpt>
      <trkpt lat="47.84837" lon="3.57901">
        <ele>94.4</ele>
        <time>2025-03-07T22:08:13Z</time>
      </trkpt>
      <trkpt lat="47.84832" lon="3.57903">
        <ele>94.5</ele>
        <time>2025-03-07T22:08:16Z</time>
      </trkpt>
    </trkseg>
  </trk>
</gpx>